<?xml version="1.0" encoding="UTF-8" standalone="no" ?>
<gpx xmlns="http://www.topografix.com/GPX/1/1" xmlns:xsi="http://www.w3.org/2001/XMLSchema-instance" xsi:schemaLocation="http://www.topografix.com/GPX/1/1 http://www.topografix.com/GPX/1/1/gpx.xsd" version="1.1" creator="VisuGPX - https://www.visugpx.com">
  <metadata>
    <name>Pène Lounque</name>
    <desc><![CDATA[Crêtes Cap de la Taoula, Pène Lounque, Ballonque et descente par la cabane d\'Arizes et le GR10.]]></desc>
  </metadata>
  <trk>
    <name><![CDATA[2015-03-19-Pene Lounque-Ballonque]]></name>
    <trkseg>
      <trkpt lat="42.92706" lon="0.19844">
        <ele>1276.1</ele>
        <time>2015-03-19T07:31:18Z</time>
      </trkpt>
      <trkpt lat="42.92705" lon="0.19844">
        <ele>1275.6</ele>
        <time>2015-03-19T07:31:19Z</time>
      </trkpt>
      <trkpt lat="42.9271" lon="0.19832">
        <ele>1274.5</ele>
        <time>2015-03-19T07:32:21Z</time>
      </trkpt>
      <trkpt lat="42.92717" lon="0.19825">
        <ele>1277.9</ele>
        <time>2015-03-19T07:32:38Z</time>
      </trkpt>
      <trkpt lat="42.92724" lon="0.19816">
        <ele>1281.9</ele>
        <time>2015-03-19T07:33:01Z</time>
      </trkpt>
      <trkpt lat="42.92719" lon="0.19805">
        <ele>1286.6</ele>
        <time>2015-03-19T07:33:43Z</time>
      </trkpt>
      <trkpt lat="42.92709" lon="0.19804">
        <ele>1288.5</ele>
        <time>2015-03-19T07:34:00Z</time>
      </trkpt>
      <trkpt lat="42.927" lon="0.19803">
        <ele>1289.9</ele>
        <time>2015-03-19T07:34:14Z</time>
      </trkpt>
      <trkpt lat="42.92692" lon="0.19797">
        <ele>1291.9</ele>
        <time>2015-03-19T07:34:28Z</time>
      </trkpt>
      <trkpt lat="42.92687" lon="0.19786">
        <ele>1293.1</ele>
        <time>2015-03-19T07:34:44Z</time>
      </trkpt>
      <trkpt lat="42.92688" lon="0.19774">
        <ele>1294.9</ele>
        <time>2015-03-19T07:35:00Z</time>
      </trkpt>
      <trkpt lat="42.92691" lon="0.19761">
        <ele>1296.6</ele>
        <time>2015-03-19T07:35:17Z</time>
      </trkpt>
      <trkpt lat="42.92696" lon="0.1975">
        <ele>1299.7</ele>
        <time>2015-03-19T07:35:35Z</time>
      </trkpt>
      <trkpt lat="42.92696" lon="0.19738">
        <ele>1303</ele>
        <time>2015-03-19T07:36:00Z</time>
      </trkpt>
      <trkpt lat="42.92694" lon="0.19725">
        <ele>1305.6</ele>
        <time>2015-03-19T07:36:18Z</time>
      </trkpt>
      <trkpt lat="42.92691" lon="0.19713">
        <ele>1307.2</ele>
        <time>2015-03-19T07:36:35Z</time>
      </trkpt>
      <trkpt lat="42.92687" lon="0.19703">
        <ele>1309.7</ele>
        <time>2015-03-19T07:36:57Z</time>
      </trkpt>
      <trkpt lat="42.92679" lon="0.19696">
        <ele>1313.5</ele>
        <time>2015-03-19T07:37:22Z</time>
      </trkpt>
      <trkpt lat="42.92682" lon="0.19683">
        <ele>1316.4</ele>
        <time>2015-03-19T07:37:49Z</time>
      </trkpt>
      <trkpt lat="42.92689" lon="0.19675">
        <ele>1319.4</ele>
        <time>2015-03-19T07:38:10Z</time>
      </trkpt>
      <trkpt lat="42.92696" lon="0.19668">
        <ele>1324.8</ele>
        <time>2015-03-19T07:38:45Z</time>
      </trkpt>
      <trkpt lat="42.92693" lon="0.19656">
        <ele>1328.5</ele>
        <time>2015-03-19T07:39:12Z</time>
      </trkpt>
      <trkpt lat="42.92693" lon="0.19643">
        <ele>1331.5</ele>
        <time>2015-03-19T07:39:38Z</time>
      </trkpt>
      <trkpt lat="42.92698" lon="0.19633">
        <ele>1332.3</ele>
        <time>2015-03-19T07:39:56Z</time>
      </trkpt>
      <trkpt lat="42.92688" lon="0.19629">
        <ele>1334.9</ele>
        <time>2015-03-19T07:40:21Z</time>
      </trkpt>
      <trkpt lat="42.92679" lon="0.19626">
        <ele>1336</ele>
        <time>2015-03-19T07:40:30Z</time>
      </trkpt>
      <trkpt lat="42.9267" lon="0.19622">
        <ele>1336.7</ele>
        <time>2015-03-19T07:40:40Z</time>
      </trkpt>
      <trkpt lat="42.92663" lon="0.19613">
        <ele>1339.2</ele>
        <time>2015-03-19T07:40:55Z</time>
      </trkpt>
      <trkpt lat="42.92656" lon="0.19606">
        <ele>1341.6</ele>
        <time>2015-03-19T07:41:17Z</time>
      </trkpt>
      <trkpt lat="42.92648" lon="0.19598">
        <ele>1342.9</ele>
        <time>2015-03-19T07:41:36Z</time>
      </trkpt>
      <trkpt lat="42.9264" lon="0.19594">
        <ele>1347.6</ele>
        <time>2015-03-19T07:41:57Z</time>
      </trkpt>
      <trkpt lat="42.92632" lon="0.19587">
        <ele>1349.2</ele>
        <time>2015-03-19T07:42:29Z</time>
      </trkpt>
      <trkpt lat="42.9263" lon="0.19574">
        <ele>1351.8</ele>
        <time>2015-03-19T07:42:48Z</time>
      </trkpt>
      <trkpt lat="42.92627" lon="0.19562">
        <ele>1355.3</ele>
        <time>2015-03-19T07:43:02Z</time>
      </trkpt>
      <trkpt lat="42.92629" lon="0.1955">
        <ele>1356.8</ele>
        <time>2015-03-19T07:43:16Z</time>
      </trkpt>
      <trkpt lat="42.92635" lon="0.1954">
        <ele>1359.2</ele>
        <time>2015-03-19T07:43:32Z</time>
      </trkpt>
      <trkpt lat="42.92642" lon="0.19517">
        <ele>1366.8</ele>
        <time>2015-03-19T07:44:16Z</time>
      </trkpt>
      <trkpt lat="42.92643" lon="0.19505">
        <ele>1370.7</ele>
        <time>2015-03-19T07:44:38Z</time>
      </trkpt>
      <trkpt lat="42.92644" lon="0.1948">
        <ele>1377.4</ele>
        <time>2015-03-19T07:45:40Z</time>
      </trkpt>
      <trkpt lat="42.92643" lon="0.19455">
        <ele>1381.4</ele>
        <time>2015-03-19T07:46:13Z</time>
      </trkpt>
      <trkpt lat="42.92646" lon="0.19443">
        <ele>1382.6</ele>
        <time>2015-03-19T07:46:29Z</time>
      </trkpt>
      <trkpt lat="42.9265" lon="0.19432">
        <ele>1385.8</ele>
        <time>2015-03-19T07:46:46Z</time>
      </trkpt>
      <trkpt lat="42.92655" lon="0.1941">
        <ele>1393.4</ele>
        <time>2015-03-19T07:47:54Z</time>
      </trkpt>
      <trkpt lat="42.92638" lon="0.19398">
        <ele>1394.7</ele>
        <time>2015-03-19T07:48:09Z</time>
      </trkpt>
      <trkpt lat="42.92631" lon="0.1939">
        <ele>1395.2</ele>
        <time>2015-03-19T07:48:21Z</time>
      </trkpt>
      <trkpt lat="42.92629" lon="0.19378">
        <ele>1397.4</ele>
        <time>2015-03-19T07:48:38Z</time>
      </trkpt>
      <trkpt lat="42.92626" lon="0.19365">
        <ele>1398.2</ele>
        <time>2015-03-19T07:48:52Z</time>
      </trkpt>
      <trkpt lat="42.92626" lon="0.19353">
        <ele>1398.9</ele>
        <time>2015-03-19T07:49:05Z</time>
      </trkpt>
      <trkpt lat="42.92627" lon="0.19344">
        <ele>1401</ele>
        <time>2015-03-19T07:49:59Z</time>
      </trkpt>
      <trkpt lat="42.92616" lon="0.19335">
        <ele>1401</ele>
        <time>2015-03-19T07:50:26Z</time>
      </trkpt>
      <trkpt lat="42.92616" lon="0.19334">
        <ele>1400</ele>
        <time>2015-03-19T07:50:58Z</time>
      </trkpt>
      <trkpt lat="42.9262" lon="0.19345">
        <ele>1401</ele>
        <time>2015-03-19T07:51:45Z</time>
      </trkpt>
      <trkpt lat="42.92621" lon="0.19333">
        <ele>1403</ele>
        <time>2015-03-19T07:52:29Z</time>
      </trkpt>
      <trkpt lat="42.92611" lon="0.19331">
        <ele>1404</ele>
        <time>2015-03-19T07:52:41Z</time>
      </trkpt>
      <trkpt lat="42.92598" lon="0.1933">
        <ele>1405</ele>
        <time>2015-03-19T07:52:57Z</time>
      </trkpt>
      <trkpt lat="42.92579" lon="0.19331">
        <ele>1406.5</ele>
        <time>2015-03-19T07:53:15Z</time>
      </trkpt>
      <trkpt lat="42.9257" lon="0.19326">
        <ele>1407</ele>
        <time>2015-03-19T07:53:27Z</time>
      </trkpt>
      <trkpt lat="42.92564" lon="0.19316">
        <ele>1408</ele>
        <time>2015-03-19T07:53:40Z</time>
      </trkpt>
      <trkpt lat="42.92558" lon="0.19307">
        <ele>1410.9</ele>
        <time>2015-03-19T07:53:54Z</time>
      </trkpt>
      <trkpt lat="42.92552" lon="0.19297">
        <ele>1412.5</ele>
        <time>2015-03-19T07:54:08Z</time>
      </trkpt>
      <trkpt lat="42.92547" lon="0.19272">
        <ele>1416.6</ele>
        <time>2015-03-19T07:54:36Z</time>
      </trkpt>
      <trkpt lat="42.92549" lon="0.19259">
        <ele>1417.2</ele>
        <time>2015-03-19T07:54:49Z</time>
      </trkpt>
      <trkpt lat="42.92552" lon="0.19248">
        <ele>1418.5</ele>
        <time>2015-03-19T07:55:04Z</time>
      </trkpt>
      <trkpt lat="42.92555" lon="0.19235">
        <ele>1420.7</ele>
        <time>2015-03-19T07:55:24Z</time>
      </trkpt>
      <trkpt lat="42.92559" lon="0.19209">
        <ele>1422.1</ele>
        <time>2015-03-19T07:55:50Z</time>
      </trkpt>
      <trkpt lat="42.92561" lon="0.19197">
        <ele>1423.5</ele>
        <time>2015-03-19T07:56:03Z</time>
      </trkpt>
      <trkpt lat="42.92564" lon="0.19185">
        <ele>1424.5</ele>
        <time>2015-03-19T07:56:16Z</time>
      </trkpt>
      <trkpt lat="42.92565" lon="0.19173">
        <ele>1426</ele>
        <time>2015-03-19T07:56:32Z</time>
      </trkpt>
      <trkpt lat="42.92576" lon="0.19152">
        <ele>1427.9</ele>
        <time>2015-03-19T07:57:15Z</time>
      </trkpt>
      <trkpt lat="42.92582" lon="0.19142">
        <ele>1429.1</ele>
        <time>2015-03-19T07:57:28Z</time>
      </trkpt>
      <trkpt lat="42.92588" lon="0.19132">
        <ele>1432</ele>
        <time>2015-03-19T07:57:41Z</time>
      </trkpt>
      <trkpt lat="42.9259" lon="0.19107">
        <ele>1434.8</ele>
        <time>2015-03-19T07:58:10Z</time>
      </trkpt>
      <trkpt lat="42.92592" lon="0.19094">
        <ele>1435.9</ele>
        <time>2015-03-19T07:58:25Z</time>
      </trkpt>
      <trkpt lat="42.92594" lon="0.19082">
        <ele>1437.7</ele>
        <time>2015-03-19T07:58:38Z</time>
      </trkpt>
      <trkpt lat="42.92597" lon="0.1907">
        <ele>1438</ele>
        <time>2015-03-19T07:58:52Z</time>
      </trkpt>
      <trkpt lat="42.92601" lon="0.19046">
        <ele>1439.6</ele>
        <time>2015-03-19T07:59:17Z</time>
      </trkpt>
      <trkpt lat="42.92603" lon="0.19033">
        <ele>1441.3</ele>
        <time>2015-03-19T07:59:31Z</time>
      </trkpt>
      <trkpt lat="42.92605" lon="0.1902">
        <ele>1441.2</ele>
        <time>2015-03-19T07:59:44Z</time>
      </trkpt>
      <trkpt lat="42.92606" lon="0.19008">
        <ele>1443.8</ele>
        <time>2015-03-19T07:59:57Z</time>
      </trkpt>
      <trkpt lat="42.92605" lon="0.18982">
        <ele>1445.6</ele>
        <time>2015-03-19T08:00:24Z</time>
      </trkpt>
      <trkpt lat="42.92607" lon="0.18969">
        <ele>1448</ele>
        <time>2015-03-19T08:00:42Z</time>
      </trkpt>
      <trkpt lat="42.92608" lon="0.18957">
        <ele>1449.8</ele>
        <time>2015-03-19T08:00:58Z</time>
      </trkpt>
      <trkpt lat="42.92609" lon="0.18944">
        <ele>1451.9</ele>
        <time>2015-03-19T08:01:12Z</time>
      </trkpt>
      <trkpt lat="42.92608" lon="0.18944">
        <ele>1453.2</ele>
        <time>2015-03-19T08:02:08Z</time>
      </trkpt>
      <trkpt lat="42.92617" lon="0.18947">
        <ele>1453.4</ele>
        <time>2015-03-19T08:02:54Z</time>
      </trkpt>
      <trkpt lat="42.92611" lon="0.1891">
        <ele>1454.7</ele>
        <time>2015-03-19T08:05:01Z</time>
      </trkpt>
      <trkpt lat="42.92611" lon="0.18897">
        <ele>1456</ele>
        <time>2015-03-19T08:05:14Z</time>
      </trkpt>
      <trkpt lat="42.92608" lon="0.18885">
        <ele>1457.5</ele>
        <time>2015-03-19T08:05:28Z</time>
      </trkpt>
      <trkpt lat="42.92604" lon="0.18873">
        <ele>1458.7</ele>
        <time>2015-03-19T08:05:44Z</time>
      </trkpt>
      <trkpt lat="42.92595" lon="0.18851">
        <ele>1462.5</ele>
        <time>2015-03-19T08:06:15Z</time>
      </trkpt>
      <trkpt lat="42.92594" lon="0.18839">
        <ele>1464.5</ele>
        <time>2015-03-19T08:06:31Z</time>
      </trkpt>
      <trkpt lat="42.92595" lon="0.18826">
        <ele>1466.6</ele>
        <time>2015-03-19T08:06:50Z</time>
      </trkpt>
      <trkpt lat="42.92595" lon="0.18801">
        <ele>1471.2</ele>
        <time>2015-03-19T08:07:33Z</time>
      </trkpt>
      <trkpt lat="42.92594" lon="0.18789">
        <ele>1475.4</ele>
        <time>2015-03-19T08:07:57Z</time>
      </trkpt>
      <trkpt lat="42.92601" lon="0.18765">
        <ele>1478.8</ele>
        <time>2015-03-19T08:08:33Z</time>
      </trkpt>
      <trkpt lat="42.92603" lon="0.18752">
        <ele>1480.8</ele>
        <time>2015-03-19T08:08:49Z</time>
      </trkpt>
      <trkpt lat="42.92606" lon="0.18741">
        <ele>1482.4</ele>
        <time>2015-03-19T08:09:08Z</time>
      </trkpt>
      <trkpt lat="42.92606" lon="0.18715">
        <ele>1484.6</ele>
        <time>2015-03-19T08:09:38Z</time>
      </trkpt>
      <trkpt lat="42.92608" lon="0.18703">
        <ele>1486.4</ele>
        <time>2015-03-19T08:09:52Z</time>
      </trkpt>
      <trkpt lat="42.9261" lon="0.18691">
        <ele>1486.7</ele>
        <time>2015-03-19T08:10:07Z</time>
      </trkpt>
      <trkpt lat="42.92613" lon="0.18678">
        <ele>1488.5</ele>
        <time>2015-03-19T08:10:24Z</time>
      </trkpt>
      <trkpt lat="42.92616" lon="0.18654">
        <ele>1493.8</ele>
        <time>2015-03-19T08:11:05Z</time>
      </trkpt>
      <trkpt lat="42.92619" lon="0.18642">
        <ele>1496</ele>
        <time>2015-03-19T08:11:24Z</time>
      </trkpt>
      <trkpt lat="42.92621" lon="0.1863">
        <ele>1499.1</ele>
        <time>2015-03-19T08:11:43Z</time>
      </trkpt>
      <trkpt lat="42.92627" lon="0.18607">
        <ele>1502</ele>
        <time>2015-03-19T08:12:17Z</time>
      </trkpt>
      <trkpt lat="42.9263" lon="0.18595">
        <ele>1504.6</ele>
        <time>2015-03-19T08:12:35Z</time>
      </trkpt>
      <trkpt lat="42.92636" lon="0.18585">
        <ele>1506.1</ele>
        <time>2015-03-19T08:12:53Z</time>
      </trkpt>
      <trkpt lat="42.92648" lon="0.18565">
        <ele>1510.5</ele>
        <time>2015-03-19T08:13:35Z</time>
      </trkpt>
      <trkpt lat="42.92655" lon="0.18556">
        <ele>1512.9</ele>
        <time>2015-03-19T08:13:54Z</time>
      </trkpt>
      <trkpt lat="42.92665" lon="0.18535">
        <ele>1515.7</ele>
        <time>2015-03-19T08:14:29Z</time>
      </trkpt>
      <trkpt lat="42.9267" lon="0.18524">
        <ele>1516.9</ele>
        <time>2015-03-19T08:14:46Z</time>
      </trkpt>
      <trkpt lat="42.92675" lon="0.18513">
        <ele>1518.2</ele>
        <time>2015-03-19T08:15:04Z</time>
      </trkpt>
      <trkpt lat="42.92688" lon="0.18496">
        <ele>1521.3</ele>
        <time>2015-03-19T08:15:34Z</time>
      </trkpt>
      <trkpt lat="42.92695" lon="0.18488">
        <ele>1522.2</ele>
        <time>2015-03-19T08:15:47Z</time>
      </trkpt>
      <trkpt lat="42.92702" lon="0.1848">
        <ele>1523.2</ele>
        <time>2015-03-19T08:16:00Z</time>
      </trkpt>
      <trkpt lat="42.92709" lon="0.18471">
        <ele>1526.1</ele>
        <time>2015-03-19T08:16:17Z</time>
      </trkpt>
      <trkpt lat="42.92726" lon="0.18459">
        <ele>1527</ele>
        <time>2015-03-19T08:16:41Z</time>
      </trkpt>
      <trkpt lat="42.92734" lon="0.18453">
        <ele>1528.7</ele>
        <time>2015-03-19T08:16:53Z</time>
      </trkpt>
      <trkpt lat="42.92743" lon="0.18448">
        <ele>1529</ele>
        <time>2015-03-19T08:17:06Z</time>
      </trkpt>
      <trkpt lat="42.92751" lon="0.18443">
        <ele>1530.8</ele>
        <time>2015-03-19T08:17:21Z</time>
      </trkpt>
      <trkpt lat="42.92765" lon="0.18426">
        <ele>1534.3</ele>
        <time>2015-03-19T08:17:50Z</time>
      </trkpt>
      <trkpt lat="42.92773" lon="0.1842">
        <ele>1536.6</ele>
        <time>2015-03-19T08:18:05Z</time>
      </trkpt>
      <trkpt lat="42.9278" lon="0.18411">
        <ele>1538</ele>
        <time>2015-03-19T08:18:21Z</time>
      </trkpt>
      <trkpt lat="42.92785" lon="0.18401">
        <ele>1539.3</ele>
        <time>2015-03-19T08:18:34Z</time>
      </trkpt>
      <trkpt lat="42.92794" lon="0.18377">
        <ele>1540.7</ele>
        <time>2015-03-19T08:18:57Z</time>
      </trkpt>
      <trkpt lat="42.92797" lon="0.18365">
        <ele>1542</ele>
        <time>2015-03-19T08:19:10Z</time>
      </trkpt>
      <trkpt lat="42.928" lon="0.18353">
        <ele>1543.5</ele>
        <time>2015-03-19T08:19:22Z</time>
      </trkpt>
      <trkpt lat="42.92803" lon="0.18341">
        <ele>1544</ele>
        <time>2015-03-19T08:19:35Z</time>
      </trkpt>
      <trkpt lat="42.92806" lon="0.18317">
        <ele>1548</ele>
        <time>2015-03-19T08:20:05Z</time>
      </trkpt>
      <trkpt lat="42.92808" lon="0.18304">
        <ele>1548.5</ele>
        <time>2015-03-19T08:20:19Z</time>
      </trkpt>
      <trkpt lat="42.9281" lon="0.18292">
        <ele>1549.7</ele>
        <time>2015-03-19T08:20:32Z</time>
      </trkpt>
      <trkpt lat="42.92813" lon="0.1828">
        <ele>1551</ele>
        <time>2015-03-19T08:25:39Z</time>
      </trkpt>
      <trkpt lat="42.92823" lon="0.18257">
        <ele>1552.2</ele>
        <time>2015-03-19T08:26:02Z</time>
      </trkpt>
      <trkpt lat="42.92828" lon="0.18247">
        <ele>1552.6</ele>
        <time>2015-03-19T08:26:17Z</time>
      </trkpt>
      <trkpt lat="42.92832" lon="0.18235">
        <ele>1552.9</ele>
        <time>2015-03-19T08:26:30Z</time>
      </trkpt>
      <trkpt lat="42.92839" lon="0.18226">
        <ele>1554.4</ele>
        <time>2015-03-19T08:26:45Z</time>
      </trkpt>
      <trkpt lat="42.92852" lon="0.18206">
        <ele>1556.7</ele>
        <time>2015-03-19T08:27:13Z</time>
      </trkpt>
      <trkpt lat="42.92856" lon="0.18194">
        <ele>1557.3</ele>
        <time>2015-03-19T08:27:25Z</time>
      </trkpt>
      <trkpt lat="42.92862" lon="0.18184">
        <ele>1557.4</ele>
        <time>2015-03-19T08:27:37Z</time>
      </trkpt>
      <trkpt lat="42.92868" lon="0.18175">
        <ele>1558.1</ele>
        <time>2015-03-19T08:27:48Z</time>
      </trkpt>
      <trkpt lat="42.92882" lon="0.18157">
        <ele>1559</ele>
        <time>2015-03-19T08:28:10Z</time>
      </trkpt>
      <trkpt lat="42.92887" lon="0.18146">
        <ele>1557.8</ele>
        <time>2015-03-19T08:28:19Z</time>
      </trkpt>
      <trkpt lat="42.92895" lon="0.1814">
        <ele>1558.6</ele>
        <time>2015-03-19T08:28:32Z</time>
      </trkpt>
      <trkpt lat="42.92903" lon="0.18134">
        <ele>1559.1</ele>
        <time>2015-03-19T08:28:44Z</time>
      </trkpt>
      <trkpt lat="42.92913" lon="0.18135">
        <ele>1559.9</ele>
        <time>2015-03-19T08:29:14Z</time>
      </trkpt>
      <trkpt lat="42.92927" lon="0.18152">
        <ele>1558.1</ele>
        <time>2015-03-19T08:30:40Z</time>
      </trkpt>
      <trkpt lat="42.92936" lon="0.18185">
        <ele>1559.4</ele>
        <time>2015-03-19T08:31:01Z</time>
      </trkpt>
      <trkpt lat="42.9293" lon="0.18173">
        <ele>1558.9</ele>
        <time>2015-03-19T08:31:05Z</time>
      </trkpt>
      <trkpt lat="42.92924" lon="0.18161">
        <ele>1559.6</ele>
        <time>2015-03-19T08:31:10Z</time>
      </trkpt>
      <trkpt lat="42.92919" lon="0.1815">
        <ele>1558.6</ele>
        <time>2015-03-19T08:31:18Z</time>
      </trkpt>
      <trkpt lat="42.92919" lon="0.18138">
        <ele>1559</ele>
        <time>2015-03-19T08:32:40Z</time>
      </trkpt>
      <trkpt lat="42.9293" lon="0.18117">
        <ele>1561.5</ele>
        <time>2015-03-19T08:33:07Z</time>
      </trkpt>
      <trkpt lat="42.92937" lon="0.18109">
        <ele>1561.8</ele>
        <time>2015-03-19T08:33:18Z</time>
      </trkpt>
      <trkpt lat="42.92943" lon="0.18099">
        <ele>1562.2</ele>
        <time>2015-03-19T08:33:30Z</time>
      </trkpt>
      <trkpt lat="42.92951" lon="0.18091">
        <ele>1563.2</ele>
        <time>2015-03-19T08:33:40Z</time>
      </trkpt>
      <trkpt lat="42.92958" lon="0.18083">
        <ele>1563.3</ele>
        <time>2015-03-19T08:33:50Z</time>
      </trkpt>
      <trkpt lat="42.92974" lon="0.18066">
        <ele>1564.7</ele>
        <time>2015-03-19T08:34:10Z</time>
      </trkpt>
      <trkpt lat="42.9298" lon="0.18058">
        <ele>1565.7</ele>
        <time>2015-03-19T08:34:19Z</time>
      </trkpt>
      <trkpt lat="42.92987" lon="0.18049">
        <ele>1564.7</ele>
        <time>2015-03-19T08:34:27Z</time>
      </trkpt>
      <trkpt lat="42.92994" lon="0.1804">
        <ele>1566.2</ele>
        <time>2015-03-19T08:34:37Z</time>
      </trkpt>
      <trkpt lat="42.93002" lon="0.18033">
        <ele>1568.7</ele>
        <time>2015-03-19T08:34:47Z</time>
      </trkpt>
      <trkpt lat="42.93008" lon="0.18024">
        <ele>1569.4</ele>
        <time>2015-03-19T08:34:57Z</time>
      </trkpt>
      <trkpt lat="42.93021" lon="0.18005">
        <ele>1570.9</ele>
        <time>2015-03-19T08:35:15Z</time>
      </trkpt>
      <trkpt lat="42.93026" lon="0.17995">
        <ele>1571.9</ele>
        <time>2015-03-19T08:35:24Z</time>
      </trkpt>
      <trkpt lat="42.93032" lon="0.17984">
        <ele>1573.3</ele>
        <time>2015-03-19T08:35:35Z</time>
      </trkpt>
      <trkpt lat="42.93039" lon="0.17992">
        <ele>1578.2</ele>
        <time>2015-03-19T08:37:12Z</time>
      </trkpt>
      <trkpt lat="42.93057" lon="0.17997">
        <ele>1584.6</ele>
        <time>2015-03-19T08:37:51Z</time>
      </trkpt>
      <trkpt lat="42.93066" lon="0.17995">
        <ele>1587.5</ele>
        <time>2015-03-19T08:38:09Z</time>
      </trkpt>
      <trkpt lat="42.93075" lon="0.17995">
        <ele>1591.2</ele>
        <time>2015-03-19T08:38:31Z</time>
      </trkpt>
      <trkpt lat="42.9309" lon="0.17982">
        <ele>1596.3</ele>
        <time>2015-03-19T08:39:13Z</time>
      </trkpt>
      <trkpt lat="42.93097" lon="0.17988">
        <ele>1601.8</ele>
        <time>2015-03-19T08:39:39Z</time>
      </trkpt>
      <trkpt lat="42.93108" lon="0.18009">
        <ele>1605.8</ele>
        <time>2015-03-19T08:40:09Z</time>
      </trkpt>
      <trkpt lat="42.93117" lon="0.18009">
        <ele>1608.7</ele>
        <time>2015-03-19T08:40:27Z</time>
      </trkpt>
      <trkpt lat="42.9312" lon="0.18021">
        <ele>1613.7</ele>
        <time>2015-03-19T08:40:59Z</time>
      </trkpt>
      <trkpt lat="42.93137" lon="0.18025">
        <ele>1628.2</ele>
        <time>2015-03-19T08:42:43Z</time>
      </trkpt>
      <trkpt lat="42.93151" lon="0.18024">
        <ele>1636.7</ele>
        <time>2015-03-19T08:43:35Z</time>
      </trkpt>
      <trkpt lat="42.9316" lon="0.1803">
        <ele>1641.4</ele>
        <time>2015-03-19T08:44:07Z</time>
      </trkpt>
      <trkpt lat="42.93167" lon="0.18009">
        <ele>1645.3</ele>
        <time>2015-03-19T08:44:48Z</time>
      </trkpt>
      <trkpt lat="42.93171" lon="0.18021">
        <ele>1647.6</ele>
        <time>2015-03-19T08:45:13Z</time>
      </trkpt>
      <trkpt lat="42.93172" lon="0.18046">
        <ele>1649.4</ele>
        <time>2015-03-19T08:50:42Z</time>
      </trkpt>
      <trkpt lat="42.93177" lon="0.18083">
        <ele>1655.4</ele>
        <time>2015-03-19T08:53:44Z</time>
      </trkpt>
      <trkpt lat="42.93177" lon="0.18096">
        <ele>1658.2</ele>
        <time>2015-03-19T08:54:00Z</time>
      </trkpt>
      <trkpt lat="42.93186" lon="0.18092">
        <ele>1663.8</ele>
        <time>2015-03-19T08:54:51Z</time>
      </trkpt>
      <trkpt lat="42.932" lon="0.18075">
        <ele>1666.9</ele>
        <time>2015-03-19T08:55:27Z</time>
      </trkpt>
      <trkpt lat="42.93204" lon="0.18086">
        <ele>1670.6</ele>
        <time>2015-03-19T08:55:44Z</time>
      </trkpt>
      <trkpt lat="42.93212" lon="0.18092">
        <ele>1675.8</ele>
        <time>2015-03-19T08:57:53Z</time>
      </trkpt>
      <trkpt lat="42.93226" lon="0.18108">
        <ele>1686.5</ele>
        <time>2015-03-19T08:59:07Z</time>
      </trkpt>
      <trkpt lat="42.93237" lon="0.18124">
        <ele>1698.6</ele>
        <time>2015-03-19T09:00:39Z</time>
      </trkpt>
      <trkpt lat="42.93245" lon="0.18131">
        <ele>1704.3</ele>
        <time>2015-03-19T09:01:33Z</time>
      </trkpt>
      <trkpt lat="42.9325" lon="0.1812">
        <ele>1707.2</ele>
        <time>2015-03-19T09:01:53Z</time>
      </trkpt>
      <trkpt lat="42.93265" lon="0.18134">
        <ele>1713.7</ele>
        <time>2015-03-19T09:02:49Z</time>
      </trkpt>
      <trkpt lat="42.93272" lon="0.18142">
        <ele>1718.4</ele>
        <time>2015-03-19T09:03:19Z</time>
      </trkpt>
      <trkpt lat="42.9329" lon="0.18145">
        <ele>1726.3</ele>
        <time>2015-03-19T09:04:13Z</time>
      </trkpt>
      <trkpt lat="42.93296" lon="0.18155">
        <ele>1728.9</ele>
        <time>2015-03-19T09:04:35Z</time>
      </trkpt>
      <trkpt lat="42.93313" lon="0.18157">
        <ele>1737.4</ele>
        <time>2015-03-19T09:05:39Z</time>
      </trkpt>
      <trkpt lat="42.93328" lon="0.18172">
        <ele>1750</ele>
        <time>2015-03-19T09:07:24Z</time>
      </trkpt>
      <trkpt lat="42.93338" lon="0.18185">
        <ele>1759.5</ele>
        <time>2015-03-19T09:08:46Z</time>
      </trkpt>
      <trkpt lat="42.93353" lon="0.18179">
        <ele>1767</ele>
        <time>2015-03-19T09:09:51Z</time>
      </trkpt>
      <trkpt lat="42.93371" lon="0.18171">
        <ele>1772.3</ele>
        <time>2015-03-19T09:10:37Z</time>
      </trkpt>
      <trkpt lat="42.93379" lon="0.18165">
        <ele>1773.8</ele>
        <time>2015-03-19T09:10:51Z</time>
      </trkpt>
      <trkpt lat="42.93387" lon="0.18159">
        <ele>1774.6</ele>
        <time>2015-03-19T09:11:06Z</time>
      </trkpt>
      <trkpt lat="42.93405" lon="0.18155">
        <ele>1780.6</ele>
        <time>2015-03-19T09:11:43Z</time>
      </trkpt>
      <trkpt lat="42.93413" lon="0.18162">
        <ele>1783.7</ele>
        <time>2015-03-19T09:12:04Z</time>
      </trkpt>
      <trkpt lat="42.93412" lon="0.18174">
        <ele>1787.2</ele>
        <time>2015-03-19T09:12:26Z</time>
      </trkpt>
      <trkpt lat="42.93421" lon="0.18189">
        <ele>1795.2</ele>
        <time>2015-03-19T09:13:15Z</time>
      </trkpt>
      <trkpt lat="42.93431" lon="0.1819">
        <ele>1800.2</ele>
        <time>2015-03-19T09:13:37Z</time>
      </trkpt>
      <trkpt lat="42.93449" lon="0.18189">
        <ele>1805.8</ele>
        <time>2015-03-19T09:14:16Z</time>
      </trkpt>
      <trkpt lat="42.93458" lon="0.18189">
        <ele>1809.6</ele>
        <time>2015-03-19T09:14:34Z</time>
      </trkpt>
      <trkpt lat="42.93467" lon="0.18187">
        <ele>1812.8</ele>
        <time>2015-03-19T09:14:55Z</time>
      </trkpt>
      <trkpt lat="42.93485" lon="0.18182">
        <ele>1820.7</ele>
        <time>2015-03-19T09:15:34Z</time>
      </trkpt>
      <trkpt lat="42.93494" lon="0.18186">
        <ele>1824.2</ele>
        <time>2015-03-19T09:16:01Z</time>
      </trkpt>
      <trkpt lat="42.93502" lon="0.18206">
        <ele>1834.8</ele>
        <time>2015-03-19T09:20:12Z</time>
      </trkpt>
      <trkpt lat="42.93514" lon="0.1822">
        <ele>1845</ele>
        <time>2015-03-19T09:21:14Z</time>
      </trkpt>
      <trkpt lat="42.93526" lon="0.18229">
        <ele>1853.4</ele>
        <time>2015-03-19T09:22:01Z</time>
      </trkpt>
      <trkpt lat="42.93533" lon="0.18237">
        <ele>1858.3</ele>
        <time>2015-03-19T09:22:36Z</time>
      </trkpt>
      <trkpt lat="42.93545" lon="0.18268">
        <ele>1878.7</ele>
        <time>2015-03-19T09:25:34Z</time>
      </trkpt>
      <trkpt lat="42.93563" lon="0.18274">
        <ele>1889.8</ele>
        <time>2015-03-19T09:26:56Z</time>
      </trkpt>
      <trkpt lat="42.9358" lon="0.1828">
        <ele>1899</ele>
        <time>2015-03-19T09:27:51Z</time>
      </trkpt>
      <trkpt lat="42.93589" lon="0.18284">
        <ele>1906.5</ele>
        <time>2015-03-19T09:28:54Z</time>
      </trkpt>
      <trkpt lat="42.936" lon="0.18299">
        <ele>1915.5</ele>
        <time>2015-03-19T09:29:53Z</time>
      </trkpt>
      <trkpt lat="42.93594" lon="0.18309">
        <ele>1918.3</ele>
        <time>2015-03-19T09:30:20Z</time>
      </trkpt>
      <trkpt lat="42.9362" lon="0.18312">
        <ele>1928.3</ele>
        <time>2015-03-19T09:44:22Z</time>
      </trkpt>
      <trkpt lat="42.9363" lon="0.1831">
        <ele>1929.1</ele>
        <time>2015-03-19T09:44:42Z</time>
      </trkpt>
      <trkpt lat="42.93639" lon="0.18311">
        <ele>1932.6</ele>
        <time>2015-03-19T09:45:02Z</time>
      </trkpt>
      <trkpt lat="42.93657" lon="0.18311">
        <ele>1938</ele>
        <time>2015-03-19T09:45:39Z</time>
      </trkpt>
      <trkpt lat="42.93666" lon="0.18311">
        <ele>1941.5</ele>
        <time>2015-03-19T09:45:57Z</time>
      </trkpt>
      <trkpt lat="42.93675" lon="0.18312">
        <ele>1945.2</ele>
        <time>2015-03-19T09:46:19Z</time>
      </trkpt>
      <trkpt lat="42.93694" lon="0.18311">
        <ele>1952.2</ele>
        <time>2015-03-19T09:47:00Z</time>
      </trkpt>
      <trkpt lat="42.93703" lon="0.18309">
        <ele>1954</ele>
        <time>2015-03-19T09:47:18Z</time>
      </trkpt>
      <trkpt lat="42.93709" lon="0.18318">
        <ele>1958</ele>
        <time>2015-03-19T09:47:45Z</time>
      </trkpt>
      <trkpt lat="42.93718" lon="0.1834">
        <ele>1967.2</ele>
        <time>2015-03-19T09:48:39Z</time>
      </trkpt>
      <trkpt lat="42.93726" lon="0.18345">
        <ele>1969.9</ele>
        <time>2015-03-19T09:48:59Z</time>
      </trkpt>
      <trkpt lat="42.93743" lon="0.18356">
        <ele>1975.2</ele>
        <time>2015-03-19T09:49:33Z</time>
      </trkpt>
      <trkpt lat="42.93752" lon="0.18361">
        <ele>1976.9</ele>
        <time>2015-03-19T09:49:50Z</time>
      </trkpt>
      <trkpt lat="42.93761" lon="0.18365">
        <ele>1979.4</ele>
        <time>2015-03-19T09:50:06Z</time>
      </trkpt>
      <trkpt lat="42.9375" lon="0.18386">
        <ele>1985.2</ele>
        <time>2015-03-19T09:50:43Z</time>
      </trkpt>
      <trkpt lat="42.93745" lon="0.18396">
        <ele>1988.6</ele>
        <time>2015-03-19T09:51:01Z</time>
      </trkpt>
      <trkpt lat="42.93749" lon="0.18407">
        <ele>1991.5</ele>
        <time>2015-03-19T09:51:22Z</time>
      </trkpt>
      <trkpt lat="42.93759" lon="0.18427">
        <ele>1998.9</ele>
        <time>2015-03-19T09:52:09Z</time>
      </trkpt>
      <trkpt lat="42.93758" lon="0.1844">
        <ele>2003.6</ele>
        <time>2015-03-19T09:53:17Z</time>
      </trkpt>
      <trkpt lat="42.93773" lon="0.18453">
        <ele>2009.7</ele>
        <time>2015-03-19T09:54:00Z</time>
      </trkpt>
      <trkpt lat="42.93772" lon="0.18466">
        <ele>2014.7</ele>
        <time>2015-03-19T09:54:32Z</time>
      </trkpt>
      <trkpt lat="42.93779" lon="0.1848">
        <ele>2022.8</ele>
        <time>2015-03-19T09:55:20Z</time>
      </trkpt>
      <trkpt lat="42.93788" lon="0.18482">
        <ele>2025.5</ele>
        <time>2015-03-19T09:55:44Z</time>
      </trkpt>
      <trkpt lat="42.93783" lon="0.18506">
        <ele>2031.6</ele>
        <time>2015-03-19T09:56:30Z</time>
      </trkpt>
      <trkpt lat="42.93789" lon="0.18515">
        <ele>2035.6</ele>
        <time>2015-03-19T09:56:57Z</time>
      </trkpt>
      <trkpt lat="42.93805" lon="0.18523">
        <ele>2043.1</ele>
        <time>2015-03-19T10:00:32Z</time>
      </trkpt>
      <trkpt lat="42.93808" lon="0.18548">
        <ele>2050</ele>
        <time>2015-03-19T10:01:15Z</time>
      </trkpt>
      <trkpt lat="42.93808" lon="0.1856">
        <ele>2054.7</ele>
        <time>2015-03-19T10:01:32Z</time>
      </trkpt>
      <trkpt lat="42.93817" lon="0.18561">
        <ele>2057.9</ele>
        <time>2015-03-19T10:02:05Z</time>
      </trkpt>
      <trkpt lat="42.93831" lon="0.18565">
        <ele>2064.6</ele>
        <time>2015-03-19T10:02:53Z</time>
      </trkpt>
      <trkpt lat="42.93835" lon="0.18577">
        <ele>2067.1</ele>
        <time>2015-03-19T10:03:12Z</time>
      </trkpt>
      <trkpt lat="42.93848" lon="0.18584">
        <ele>2073.8</ele>
        <time>2015-03-19T10:03:55Z</time>
      </trkpt>
      <trkpt lat="42.93857" lon="0.18579">
        <ele>2076</ele>
        <time>2015-03-19T10:04:16Z</time>
      </trkpt>
      <trkpt lat="42.93875" lon="0.18582">
        <ele>2082.9</ele>
        <time>2015-03-19T10:05:03Z</time>
      </trkpt>
      <trkpt lat="42.93883" lon="0.18575">
        <ele>2085.2</ele>
        <time>2015-03-19T10:05:24Z</time>
      </trkpt>
      <trkpt lat="42.93896" lon="0.18558">
        <ele>2090.8</ele>
        <time>2015-03-19T10:06:02Z</time>
      </trkpt>
      <trkpt lat="42.93903" lon="0.18567">
        <ele>2094.2</ele>
        <time>2015-03-19T10:06:26Z</time>
      </trkpt>
      <trkpt lat="42.93917" lon="0.18578">
        <ele>2101</ele>
        <time>2015-03-19T10:07:11Z</time>
      </trkpt>
      <trkpt lat="42.93926" lon="0.18573">
        <ele>2104.6</ele>
        <time>2015-03-19T10:07:32Z</time>
      </trkpt>
      <trkpt lat="42.93943" lon="0.18563">
        <ele>2109.7</ele>
        <time>2015-03-19T10:08:11Z</time>
      </trkpt>
      <trkpt lat="42.93952" lon="0.1856">
        <ele>2111</ele>
        <time>2015-03-19T10:08:29Z</time>
      </trkpt>
      <trkpt lat="42.93961" lon="0.18559">
        <ele>2114.6</ele>
        <time>2015-03-19T10:08:48Z</time>
      </trkpt>
      <trkpt lat="42.93973" lon="0.18578">
        <ele>2119.6</ele>
        <time>2015-03-19T10:09:28Z</time>
      </trkpt>
      <trkpt lat="42.93982" lon="0.18581">
        <ele>2121.4</ele>
        <time>2015-03-19T10:09:45Z</time>
      </trkpt>
      <trkpt lat="42.93991" lon="0.18582">
        <ele>2123</ele>
        <time>2015-03-19T10:10:00Z</time>
      </trkpt>
      <trkpt lat="42.9401" lon="0.18585">
        <ele>2124.8</ele>
        <time>2015-03-19T10:10:33Z</time>
      </trkpt>
      <trkpt lat="42.94019" lon="0.18582">
        <ele>2126.8</ele>
        <time>2015-03-19T10:10:50Z</time>
      </trkpt>
      <trkpt lat="42.94028" lon="0.18581">
        <ele>2128.5</ele>
        <time>2015-03-19T10:11:09Z</time>
      </trkpt>
      <trkpt lat="42.94043" lon="0.18593">
        <ele>2133.2</ele>
        <time>2015-03-19T10:11:43Z</time>
      </trkpt>
      <trkpt lat="42.94052" lon="0.18599">
        <ele>2135.9</ele>
        <time>2015-03-19T10:12:01Z</time>
      </trkpt>
      <trkpt lat="42.94061" lon="0.18599">
        <ele>2139.2</ele>
        <time>2015-03-19T10:12:20Z</time>
      </trkpt>
      <trkpt lat="42.94076" lon="0.18583">
        <ele>2145</ele>
        <time>2015-03-19T10:13:00Z</time>
      </trkpt>
      <trkpt lat="42.9408" lon="0.18594">
        <ele>2147.4</ele>
        <time>2015-03-19T10:15:48Z</time>
      </trkpt>
      <trkpt lat="42.94094" lon="0.18586">
        <ele>2153.4</ele>
        <time>2015-03-19T10:16:23Z</time>
      </trkpt>
      <trkpt lat="42.94103" lon="0.18589">
        <ele>2155.9</ele>
        <time>2015-03-19T10:16:43Z</time>
      </trkpt>
      <trkpt lat="42.94112" lon="0.18591">
        <ele>2160.6</ele>
        <time>2015-03-19T10:17:25Z</time>
      </trkpt>
      <trkpt lat="42.9413" lon="0.18583">
        <ele>2163.8</ele>
        <time>2015-03-19T10:18:05Z</time>
      </trkpt>
      <trkpt lat="42.94139" lon="0.18579">
        <ele>2165</ele>
        <time>2015-03-19T10:18:31Z</time>
      </trkpt>
      <trkpt lat="42.94157" lon="0.18573">
        <ele>2166.8</ele>
        <time>2015-03-19T10:18:57Z</time>
      </trkpt>
      <trkpt lat="42.94166" lon="0.18569">
        <ele>2166.8</ele>
        <time>2015-03-19T10:19:11Z</time>
      </trkpt>
      <trkpt lat="42.94174" lon="0.18564">
        <ele>2168.7</ele>
        <time>2015-03-19T10:19:25Z</time>
      </trkpt>
      <trkpt lat="42.94182" lon="0.18558">
        <ele>2169.6</ele>
        <time>2015-03-19T10:19:40Z</time>
      </trkpt>
      <trkpt lat="42.942" lon="0.18548">
        <ele>2171.8</ele>
        <time>2015-03-19T10:20:06Z</time>
      </trkpt>
      <trkpt lat="42.94209" lon="0.18546">
        <ele>2172.8</ele>
        <time>2015-03-19T10:20:21Z</time>
      </trkpt>
      <trkpt lat="42.94218" lon="0.18543">
        <ele>2174.1</ele>
        <time>2015-03-19T10:20:36Z</time>
      </trkpt>
      <trkpt lat="42.94227" lon="0.18548">
        <ele>2175.2</ele>
        <time>2015-03-19T10:20:50Z</time>
      </trkpt>
      <trkpt lat="42.94244" lon="0.18557">
        <ele>2177</ele>
        <time>2015-03-19T10:21:17Z</time>
      </trkpt>
      <trkpt lat="42.94253" lon="0.18558">
        <ele>2179.1</ele>
        <time>2015-03-19T10:21:34Z</time>
      </trkpt>
      <trkpt lat="42.94262" lon="0.18564">
        <ele>2182</ele>
        <time>2015-03-19T10:21:48Z</time>
      </trkpt>
      <trkpt lat="42.9427" lon="0.18569">
        <ele>2184.2</ele>
        <time>2015-03-19T10:22:02Z</time>
      </trkpt>
      <trkpt lat="42.94287" lon="0.18563">
        <ele>2192</ele>
        <time>2015-03-19T10:23:01Z</time>
      </trkpt>
      <trkpt lat="42.94296" lon="0.18563">
        <ele>2196.8</ele>
        <time>2015-03-19T10:28:27Z</time>
      </trkpt>
      <trkpt lat="42.94314" lon="0.18557">
        <ele>2203.1</ele>
        <time>2015-03-19T10:29:11Z</time>
      </trkpt>
      <trkpt lat="42.94322" lon="0.18563">
        <ele>2205.3</ele>
        <time>2015-03-19T10:29:28Z</time>
      </trkpt>
      <trkpt lat="42.94336" lon="0.1858">
        <ele>2209</ele>
        <time>2015-03-19T10:30:01Z</time>
      </trkpt>
      <trkpt lat="42.94342" lon="0.18588">
        <ele>2211.3</ele>
        <time>2015-03-19T10:30:16Z</time>
      </trkpt>
      <trkpt lat="42.9435" lon="0.18595">
        <ele>2213</ele>
        <time>2015-03-19T10:30:34Z</time>
      </trkpt>
      <trkpt lat="42.94361" lon="0.18574">
        <ele>2221.6</ele>
        <time>2015-03-19T10:31:28Z</time>
      </trkpt>
      <trkpt lat="42.94368" lon="0.18566">
        <ele>2223.5</ele>
        <time>2015-03-19T10:31:46Z</time>
      </trkpt>
      <trkpt lat="42.94386" lon="0.18565">
        <ele>2226.6</ele>
        <time>2015-03-19T10:32:21Z</time>
      </trkpt>
      <trkpt lat="42.94396" lon="0.18567">
        <ele>2230.3</ele>
        <time>2015-03-19T10:32:41Z</time>
      </trkpt>
      <trkpt lat="42.94404" lon="0.18571">
        <ele>2234</ele>
        <time>2015-03-19T10:32:58Z</time>
      </trkpt>
      <trkpt lat="42.94423" lon="0.1857">
        <ele>2237.2</ele>
        <time>2015-03-19T10:33:31Z</time>
      </trkpt>
      <trkpt lat="42.94443" lon="0.18595">
        <ele>2237</ele>
        <time>2015-03-19T10:36:42Z</time>
      </trkpt>
      <trkpt lat="42.94431" lon="0.18574">
        <ele>2237.3</ele>
        <time>2015-03-19T10:37:06Z</time>
      </trkpt>
      <trkpt lat="42.94426" lon="0.18564">
        <ele>2236.9</ele>
        <time>2015-03-19T10:39:04Z</time>
      </trkpt>
      <trkpt lat="42.94435" lon="0.18547">
        <ele>2235.7</ele>
        <time>2015-03-19T10:42:56Z</time>
      </trkpt>
      <trkpt lat="42.94443" lon="0.1854">
        <ele>2233.9</ele>
        <time>2015-03-19T10:43:07Z</time>
      </trkpt>
      <trkpt lat="42.94451" lon="0.18534">
        <ele>2231.5</ele>
        <time>2015-03-19T10:43:18Z</time>
      </trkpt>
      <trkpt lat="42.9446" lon="0.18528">
        <ele>2228.5</ele>
        <time>2015-03-19T10:43:32Z</time>
      </trkpt>
      <trkpt lat="42.94473" lon="0.1851">
        <ele>2223.9</ele>
        <time>2015-03-19T10:43:55Z</time>
      </trkpt>
      <trkpt lat="42.9448" lon="0.18502">
        <ele>2222.9</ele>
        <time>2015-03-19T10:44:05Z</time>
      </trkpt>
      <trkpt lat="42.94486" lon="0.18493">
        <ele>2221.7</ele>
        <time>2015-03-19T10:44:15Z</time>
      </trkpt>
      <trkpt lat="42.94494" lon="0.18485">
        <ele>2220.7</ele>
        <time>2015-03-19T10:44:25Z</time>
      </trkpt>
      <trkpt lat="42.94503" lon="0.18478">
        <ele>2220.4</ele>
        <time>2015-03-19T10:44:36Z</time>
      </trkpt>
      <trkpt lat="42.9452" lon="0.18465">
        <ele>2221.2</ele>
        <time>2015-03-19T10:44:58Z</time>
      </trkpt>
      <trkpt lat="42.94527" lon="0.18458">
        <ele>2222.2</ele>
        <time>2015-03-19T10:45:11Z</time>
      </trkpt>
      <trkpt lat="42.94535" lon="0.1845">
        <ele>2223.1</ele>
        <time>2015-03-19T10:45:24Z</time>
      </trkpt>
      <trkpt lat="42.94542" lon="0.18442">
        <ele>2224.8</ele>
        <time>2015-03-19T10:45:39Z</time>
      </trkpt>
      <trkpt lat="42.94548" lon="0.18421">
        <ele>2229.7</ele>
        <time>2015-03-19T10:46:11Z</time>
      </trkpt>
      <trkpt lat="42.94548" lon="0.18409">
        <ele>2232.5</ele>
        <time>2015-03-19T10:46:28Z</time>
      </trkpt>
      <trkpt lat="42.94547" lon="0.18396">
        <ele>2234.3</ele>
        <time>2015-03-19T10:46:52Z</time>
      </trkpt>
      <trkpt lat="42.9456" lon="0.18378">
        <ele>2241.6</ele>
        <time>2015-03-19T10:47:37Z</time>
      </trkpt>
      <trkpt lat="42.94568" lon="0.18373">
        <ele>2245.8</ele>
        <time>2015-03-19T10:48:03Z</time>
      </trkpt>
      <trkpt lat="42.94579" lon="0.18356">
        <ele>2251.4</ele>
        <time>2015-03-19T10:48:41Z</time>
      </trkpt>
      <trkpt lat="42.94586" lon="0.18346">
        <ele>2254.9</ele>
        <time>2015-03-19T10:49:00Z</time>
      </trkpt>
      <trkpt lat="42.94592" lon="0.18338">
        <ele>2257.5</ele>
        <time>2015-03-19T10:49:21Z</time>
      </trkpt>
      <trkpt lat="42.94608" lon="0.18323">
        <ele>2263.4</ele>
        <time>2015-03-19T10:49:58Z</time>
      </trkpt>
      <trkpt lat="42.94616" lon="0.18316">
        <ele>2266.7</ele>
        <time>2015-03-19T10:50:19Z</time>
      </trkpt>
      <trkpt lat="42.94623" lon="0.18309">
        <ele>2269.2</ele>
        <time>2015-03-19T10:50:38Z</time>
      </trkpt>
      <trkpt lat="42.94626" lon="0.18312">
        <ele>2274.1</ele>
        <time>2015-03-19T10:54:31Z</time>
      </trkpt>
      <trkpt lat="42.94631" lon="0.18335">
        <ele>2266.5</ele>
        <time>2015-03-19T10:55:03Z</time>
      </trkpt>
      <trkpt lat="42.94636" lon="0.18346">
        <ele>2262.3</ele>
        <time>2015-03-19T10:55:17Z</time>
      </trkpt>
      <trkpt lat="42.94642" lon="0.18354">
        <ele>2258.6</ele>
        <time>2015-03-19T10:55:29Z</time>
      </trkpt>
      <trkpt lat="42.9465" lon="0.18362">
        <ele>2255.6</ele>
        <time>2015-03-19T10:55:42Z</time>
      </trkpt>
      <trkpt lat="42.94662" lon="0.18383">
        <ele>2247.4</ele>
        <time>2015-03-19T10:56:10Z</time>
      </trkpt>
      <trkpt lat="42.9467" lon="0.18389">
        <ele>2244</ele>
        <time>2015-03-19T10:56:22Z</time>
      </trkpt>
      <trkpt lat="42.94679" lon="0.18393">
        <ele>2241.4</ele>
        <time>2015-03-19T10:56:32Z</time>
      </trkpt>
      <trkpt lat="42.94688" lon="0.18399">
        <ele>2238.1</ele>
        <time>2015-03-19T10:56:44Z</time>
      </trkpt>
      <trkpt lat="42.94701" lon="0.18418">
        <ele>2232</ele>
        <time>2015-03-19T10:57:08Z</time>
      </trkpt>
      <trkpt lat="42.9471" lon="0.18422">
        <ele>2227.1</ele>
        <time>2015-03-19T10:57:25Z</time>
      </trkpt>
      <trkpt lat="42.94718" lon="0.18428">
        <ele>2224</ele>
        <time>2015-03-19T10:57:45Z</time>
      </trkpt>
      <trkpt lat="42.94737" lon="0.18426">
        <ele>2218.3</ele>
        <time>2015-03-19T10:58:06Z</time>
      </trkpt>
      <trkpt lat="42.94746" lon="0.18425">
        <ele>2214.9</ele>
        <time>2015-03-19T10:58:15Z</time>
      </trkpt>
      <trkpt lat="42.94755" lon="0.18425">
        <ele>2212.7</ele>
        <time>2015-03-19T10:58:23Z</time>
      </trkpt>
      <trkpt lat="42.94765" lon="0.18425">
        <ele>2212.3</ele>
        <time>2015-03-19T10:58:32Z</time>
      </trkpt>
      <trkpt lat="42.94774" lon="0.18427">
        <ele>2212.6</ele>
        <time>2015-03-19T10:58:42Z</time>
      </trkpt>
      <trkpt lat="42.94784" lon="0.18428">
        <ele>2213.7</ele>
        <time>2015-03-19T10:58:52Z</time>
      </trkpt>
      <trkpt lat="42.94803" lon="0.1843">
        <ele>2213.6</ele>
        <time>2015-03-19T10:59:13Z</time>
      </trkpt>
      <trkpt lat="42.94813" lon="0.18432">
        <ele>2212.9</ele>
        <time>2015-03-19T10:59:22Z</time>
      </trkpt>
      <trkpt lat="42.94822" lon="0.18435">
        <ele>2213.4</ele>
        <time>2015-03-19T10:59:31Z</time>
      </trkpt>
      <trkpt lat="42.94831" lon="0.18437">
        <ele>2214.2</ele>
        <time>2015-03-19T10:59:43Z</time>
      </trkpt>
      <trkpt lat="42.9484" lon="0.18438">
        <ele>2216</ele>
        <time>2015-03-19T10:59:56Z</time>
      </trkpt>
      <trkpt lat="42.94858" lon="0.18434">
        <ele>2218.6</ele>
        <time>2015-03-19T11:00:22Z</time>
      </trkpt>
      <trkpt lat="42.94868" lon="0.18433">
        <ele>2220.1</ele>
        <time>2015-03-19T11:00:34Z</time>
      </trkpt>
      <trkpt lat="42.94877" lon="0.18429">
        <ele>2220.4</ele>
        <time>2015-03-19T11:00:45Z</time>
      </trkpt>
      <trkpt lat="42.94886" lon="0.18428">
        <ele>2221.1</ele>
        <time>2015-03-19T11:00:56Z</time>
      </trkpt>
      <trkpt lat="42.94894" lon="0.18434">
        <ele>2220.9</ele>
        <time>2015-03-19T11:01:06Z</time>
      </trkpt>
      <trkpt lat="42.94912" lon="0.18438">
        <ele>2224.4</ele>
        <time>2015-03-19T11:01:33Z</time>
      </trkpt>
      <trkpt lat="42.94921" lon="0.1844">
        <ele>2227.6</ele>
        <time>2015-03-19T11:01:48Z</time>
      </trkpt>
      <trkpt lat="42.94931" lon="0.18443">
        <ele>2229</ele>
        <time>2015-03-19T11:02:01Z</time>
      </trkpt>
      <trkpt lat="42.9494" lon="0.18447">
        <ele>2230.4</ele>
        <time>2015-03-19T11:02:12Z</time>
      </trkpt>
      <trkpt lat="42.94957" lon="0.18455">
        <ele>2232.7</ele>
        <time>2015-03-19T11:02:35Z</time>
      </trkpt>
      <trkpt lat="42.94966" lon="0.18456">
        <ele>2234.6</ele>
        <time>2015-03-19T11:02:48Z</time>
      </trkpt>
      <trkpt lat="42.94975" lon="0.18453">
        <ele>2235.6</ele>
        <time>2015-03-19T11:03:00Z</time>
      </trkpt>
      <trkpt lat="42.94984" lon="0.18449">
        <ele>2238.1</ele>
        <time>2015-03-19T11:03:15Z</time>
      </trkpt>
      <trkpt lat="42.95002" lon="0.18456">
        <ele>2242.8</ele>
        <time>2015-03-19T11:03:47Z</time>
      </trkpt>
      <trkpt lat="42.95011" lon="0.18457">
        <ele>2245.8</ele>
        <time>2015-03-19T11:04:07Z</time>
      </trkpt>
      <trkpt lat="42.9502" lon="0.18457">
        <ele>2248.2</ele>
        <time>2015-03-19T11:04:21Z</time>
      </trkpt>
      <trkpt lat="42.95037" lon="0.18449">
        <ele>2247.7</ele>
        <time>2015-03-19T11:05:36Z</time>
      </trkpt>
      <trkpt lat="42.95001" lon="0.18452">
        <ele>2248.9</ele>
        <time>2015-03-19T11:09:02Z</time>
      </trkpt>
      <trkpt lat="42.94992" lon="0.1845">
        <ele>2247.1</ele>
        <time>2015-03-19T11:09:11Z</time>
      </trkpt>
      <trkpt lat="42.94982" lon="0.18447">
        <ele>2244.4</ele>
        <time>2015-03-19T11:09:21Z</time>
      </trkpt>
      <trkpt lat="42.94973" lon="0.18445">
        <ele>2242.4</ele>
        <time>2015-03-19T11:09:30Z</time>
      </trkpt>
      <trkpt lat="42.94964" lon="0.18444">
        <ele>2241.2</ele>
        <time>2015-03-19T11:09:38Z</time>
      </trkpt>
      <trkpt lat="42.94954" lon="0.18443">
        <ele>2239.1</ele>
        <time>2015-03-19T11:09:46Z</time>
      </trkpt>
      <trkpt lat="42.94936" lon="0.18439">
        <ele>2237.4</ele>
        <time>2015-03-19T11:10:04Z</time>
      </trkpt>
      <trkpt lat="42.94927" lon="0.18436">
        <ele>2236.2</ele>
        <time>2015-03-19T11:10:14Z</time>
      </trkpt>
      <trkpt lat="42.94917" lon="0.18434">
        <ele>2233.6</ele>
        <time>2015-03-19T11:10:24Z</time>
      </trkpt>
      <trkpt lat="42.94908" lon="0.18432">
        <ele>2232.7</ele>
        <time>2015-03-19T11:10:34Z</time>
      </trkpt>
      <trkpt lat="42.94898" lon="0.18431">
        <ele>2230.5</ele>
        <time>2015-03-19T11:10:45Z</time>
      </trkpt>
      <trkpt lat="42.9489" lon="0.18423">
        <ele>2228</ele>
        <time>2015-03-19T11:10:59Z</time>
      </trkpt>
      <trkpt lat="42.94872" lon="0.18424">
        <ele>2228.2</ele>
        <time>2015-03-19T11:11:21Z</time>
      </trkpt>
      <trkpt lat="42.94863" lon="0.18427">
        <ele>2228</ele>
        <time>2015-03-19T11:11:31Z</time>
      </trkpt>
      <trkpt lat="42.94853" lon="0.18429">
        <ele>2227.4</ele>
        <time>2015-03-19T11:11:42Z</time>
      </trkpt>
      <trkpt lat="42.94844" lon="0.1843">
        <ele>2225.9</ele>
        <time>2015-03-19T11:11:51Z</time>
      </trkpt>
      <trkpt lat="42.94835" lon="0.18431">
        <ele>2225.3</ele>
        <time>2015-03-19T11:11:59Z</time>
      </trkpt>
      <trkpt lat="42.94826" lon="0.1843">
        <ele>2224.4</ele>
        <time>2015-03-19T11:12:08Z</time>
      </trkpt>
      <trkpt lat="42.94807" lon="0.18426">
        <ele>2222.4</ele>
        <time>2015-03-19T11:12:27Z</time>
      </trkpt>
      <trkpt lat="42.94798" lon="0.18425">
        <ele>2222.3</ele>
        <time>2015-03-19T11:12:38Z</time>
      </trkpt>
      <trkpt lat="42.94788" lon="0.18425">
        <ele>2222.4</ele>
        <time>2015-03-19T11:12:49Z</time>
      </trkpt>
      <trkpt lat="42.94779" lon="0.18423">
        <ele>2223</ele>
        <time>2015-03-19T11:12:59Z</time>
      </trkpt>
      <trkpt lat="42.94769" lon="0.18423">
        <ele>2222.6</ele>
        <time>2015-03-19T11:13:09Z</time>
      </trkpt>
      <trkpt lat="42.9475" lon="0.18422">
        <ele>2222.6</ele>
        <time>2015-03-19T11:13:55Z</time>
      </trkpt>
      <trkpt lat="42.94741" lon="0.18422">
        <ele>2224</ele>
        <time>2015-03-19T11:14:07Z</time>
      </trkpt>
      <trkpt lat="42.94731" lon="0.18422">
        <ele>2226</ele>
        <time>2015-03-19T11:14:23Z</time>
      </trkpt>
      <trkpt lat="42.94713" lon="0.18423">
        <ele>2232.7</ele>
        <time>2015-03-19T11:15:17Z</time>
      </trkpt>
      <trkpt lat="42.94705" lon="0.18417">
        <ele>2236</ele>
        <time>2015-03-19T11:15:38Z</time>
      </trkpt>
      <trkpt lat="42.94689" lon="0.18404">
        <ele>2244.4</ele>
        <time>2015-03-19T11:17:16Z</time>
      </trkpt>
      <trkpt lat="42.94677" lon="0.18387">
        <ele>2250.2</ele>
        <time>2015-03-19T11:18:10Z</time>
      </trkpt>
      <trkpt lat="42.94668" lon="0.18386">
        <ele>2253.9</ele>
        <time>2015-03-19T11:18:49Z</time>
      </trkpt>
      <trkpt lat="42.94653" lon="0.18372">
        <ele>2260.2</ele>
        <time>2015-03-19T11:19:49Z</time>
      </trkpt>
      <trkpt lat="42.94649" lon="0.18361">
        <ele>2263.8</ele>
        <time>2015-03-19T11:20:09Z</time>
      </trkpt>
      <trkpt lat="42.94636" lon="0.18342">
        <ele>2272.9</ele>
        <time>2015-03-19T11:20:52Z</time>
      </trkpt>
      <trkpt lat="42.94632" lon="0.18332">
        <ele>2276.9</ele>
        <time>2015-03-19T11:21:14Z</time>
      </trkpt>
      <trkpt lat="42.94628" lon="0.18309">
        <ele>2284.7</ele>
        <time>2015-03-19T11:22:00Z</time>
      </trkpt>
      <trkpt lat="42.94636" lon="0.18315">
        <ele>2287.9</ele>
        <time>2015-03-19T11:26:44Z</time>
      </trkpt>
      <trkpt lat="42.94604" lon="0.18307">
        <ele>2282.9</ele>
        <time>2015-03-19T12:05:28Z</time>
      </trkpt>
      <trkpt lat="42.94597" lon="0.18299">
        <ele>2278.6</ele>
        <time>2015-03-19T12:05:48Z</time>
      </trkpt>
      <trkpt lat="42.94588" lon="0.18295">
        <ele>2272.8</ele>
        <time>2015-03-19T12:06:27Z</time>
      </trkpt>
      <trkpt lat="42.94571" lon="0.18288">
        <ele>2263.3</ele>
        <time>2015-03-19T12:07:28Z</time>
      </trkpt>
      <trkpt lat="42.94553" lon="0.18284">
        <ele>2254.1</ele>
        <time>2015-03-19T12:08:36Z</time>
      </trkpt>
      <trkpt lat="42.94541" lon="0.18265">
        <ele>2245.6</ele>
        <time>2015-03-19T12:09:07Z</time>
      </trkpt>
      <trkpt lat="42.94536" lon="0.18253">
        <ele>2241.7</ele>
        <time>2015-03-19T12:09:19Z</time>
      </trkpt>
      <trkpt lat="42.9453" lon="0.18243">
        <ele>2239</ele>
        <time>2015-03-19T12:09:31Z</time>
      </trkpt>
      <trkpt lat="42.94526" lon="0.18232">
        <ele>2235.3</ele>
        <time>2015-03-19T12:09:43Z</time>
      </trkpt>
      <trkpt lat="42.94523" lon="0.18208">
        <ele>2228.4</ele>
        <time>2015-03-19T12:10:13Z</time>
      </trkpt>
      <trkpt lat="42.94521" lon="0.18195">
        <ele>2225.4</ele>
        <time>2015-03-19T12:10:30Z</time>
      </trkpt>
      <trkpt lat="42.94518" lon="0.18183">
        <ele>2220.6</ele>
        <time>2015-03-19T12:10:43Z</time>
      </trkpt>
      <trkpt lat="42.94514" lon="0.18172">
        <ele>2218</ele>
        <time>2015-03-19T12:10:54Z</time>
      </trkpt>
      <trkpt lat="42.94509" lon="0.18148">
        <ele>2212.3</ele>
        <time>2015-03-19T12:11:15Z</time>
      </trkpt>
      <trkpt lat="42.9451" lon="0.18136">
        <ele>2209.2</ele>
        <time>2015-03-19T12:11:26Z</time>
      </trkpt>
      <trkpt lat="42.94513" lon="0.18124">
        <ele>2208.6</ele>
        <time>2015-03-19T12:11:41Z</time>
      </trkpt>
      <trkpt lat="42.94515" lon="0.18111">
        <ele>2209.9</ele>
        <time>2015-03-19T12:12:11Z</time>
      </trkpt>
      <trkpt lat="42.94506" lon="0.18088">
        <ele>2204.6</ele>
        <time>2015-03-19T12:12:40Z</time>
      </trkpt>
      <trkpt lat="42.94503" lon="0.18076">
        <ele>2203.5</ele>
        <time>2015-03-19T12:12:54Z</time>
      </trkpt>
      <trkpt lat="42.94502" lon="0.18064">
        <ele>2201.7</ele>
        <time>2015-03-19T12:13:09Z</time>
      </trkpt>
      <trkpt lat="42.94501" lon="0.18051">
        <ele>2200.8</ele>
        <time>2015-03-19T12:13:24Z</time>
      </trkpt>
      <trkpt lat="42.94494" lon="0.18028">
        <ele>2201</ele>
        <time>2015-03-19T12:13:52Z</time>
      </trkpt>
      <trkpt lat="42.9449" lon="0.18016">
        <ele>2203.3</ele>
        <time>2015-03-19T12:14:09Z</time>
      </trkpt>
      <trkpt lat="42.94488" lon="0.18004">
        <ele>2204.7</ele>
        <time>2015-03-19T12:14:27Z</time>
      </trkpt>
      <trkpt lat="42.94474" lon="0.17986">
        <ele>2204.9</ele>
        <time>2015-03-19T12:15:03Z</time>
      </trkpt>
      <trkpt lat="42.94471" lon="0.17975">
        <ele>2208.8</ele>
        <time>2015-03-19T12:15:37Z</time>
      </trkpt>
      <trkpt lat="42.94465" lon="0.17955">
        <ele>2218.1</ele>
        <time>2015-03-19T12:18:27Z</time>
      </trkpt>
      <trkpt lat="42.94456" lon="0.17937">
        <ele>2225.3</ele>
        <time>2015-03-19T12:20:08Z</time>
      </trkpt>
      <trkpt lat="42.94432" lon="0.17887">
        <ele>2240.2</ele>
        <time>2015-03-19T12:31:40Z</time>
      </trkpt>
      <trkpt lat="42.94414" lon="0.17848">
        <ele>2246.4</ele>
        <time>2015-03-19T12:37:11Z</time>
      </trkpt>
      <trkpt lat="42.94414" lon="0.17823">
        <ele>2243.9</ele>
        <time>2015-03-19T12:37:40Z</time>
      </trkpt>
      <trkpt lat="42.94414" lon="0.1781">
        <ele>2243.3</ele>
        <time>2015-03-19T12:38:05Z</time>
      </trkpt>
      <trkpt lat="42.94416" lon="0.17798">
        <ele>2242.4</ele>
        <time>2015-03-19T12:38:23Z</time>
      </trkpt>
      <trkpt lat="42.94416" lon="0.17773">
        <ele>2238.1</ele>
        <time>2015-03-19T12:38:59Z</time>
      </trkpt>
      <trkpt lat="42.94421" lon="0.17761">
        <ele>2237.3</ele>
        <time>2015-03-19T12:39:18Z</time>
      </trkpt>
      <trkpt lat="42.94425" lon="0.17751">
        <ele>2235.6</ele>
        <time>2015-03-19T12:39:33Z</time>
      </trkpt>
      <trkpt lat="42.94433" lon="0.17727">
        <ele>2230.4</ele>
        <time>2015-03-19T12:40:05Z</time>
      </trkpt>
      <trkpt lat="42.94439" lon="0.17717">
        <ele>2229.3</ele>
        <time>2015-03-19T12:40:28Z</time>
      </trkpt>
      <trkpt lat="42.94445" lon="0.17708">
        <ele>2228.2</ele>
        <time>2015-03-19T12:40:47Z</time>
      </trkpt>
      <trkpt lat="42.94455" lon="0.17687">
        <ele>2224.4</ele>
        <time>2015-03-19T12:41:21Z</time>
      </trkpt>
      <trkpt lat="42.94461" lon="0.17677">
        <ele>2221.1</ele>
        <time>2015-03-19T12:41:39Z</time>
      </trkpt>
      <trkpt lat="42.94466" lon="0.17666">
        <ele>2218</ele>
        <time>2015-03-19T12:41:58Z</time>
      </trkpt>
      <trkpt lat="42.94465" lon="0.17645">
        <ele>2209.2</ele>
        <time>2015-03-19T12:43:15Z</time>
      </trkpt>
      <trkpt lat="42.94485" lon="0.1762">
        <ele>2204.6</ele>
        <time>2015-03-19T12:48:48Z</time>
      </trkpt>
      <trkpt lat="42.94491" lon="0.17609">
        <ele>2201.3</ele>
        <time>2015-03-19T12:48:59Z</time>
      </trkpt>
      <trkpt lat="42.94495" lon="0.17598">
        <ele>2199.4</ele>
        <time>2015-03-19T12:49:10Z</time>
      </trkpt>
      <trkpt lat="42.94501" lon="0.17588">
        <ele>2198</ele>
        <time>2015-03-19T12:49:20Z</time>
      </trkpt>
      <trkpt lat="42.94508" lon="0.1758">
        <ele>2195.8</ele>
        <time>2015-03-19T12:49:29Z</time>
      </trkpt>
      <trkpt lat="42.94522" lon="0.17563">
        <ele>2193.3</ele>
        <time>2015-03-19T12:49:51Z</time>
      </trkpt>
      <trkpt lat="42.94529" lon="0.17553">
        <ele>2191.9</ele>
        <time>2015-03-19T12:50:01Z</time>
      </trkpt>
      <trkpt lat="42.94536" lon="0.17546">
        <ele>2191.4</ele>
        <time>2015-03-19T12:50:12Z</time>
      </trkpt>
      <trkpt lat="42.94544" lon="0.17539">
        <ele>2191.9</ele>
        <time>2015-03-19T12:50:32Z</time>
      </trkpt>
      <trkpt lat="42.94559" lon="0.17523">
        <ele>2191.4</ele>
        <time>2015-03-19T12:50:56Z</time>
      </trkpt>
      <trkpt lat="42.94567" lon="0.17517">
        <ele>2190.7</ele>
        <time>2015-03-19T12:51:06Z</time>
      </trkpt>
      <trkpt lat="42.94575" lon="0.1751">
        <ele>2191.1</ele>
        <time>2015-03-19T12:51:16Z</time>
      </trkpt>
      <trkpt lat="42.94582" lon="0.17502">
        <ele>2190.9</ele>
        <time>2015-03-19T12:51:27Z</time>
      </trkpt>
      <trkpt lat="42.94587" lon="0.17492">
        <ele>2190.4</ele>
        <time>2015-03-19T12:51:41Z</time>
      </trkpt>
      <trkpt lat="42.94593" lon="0.17468">
        <ele>2187.4</ele>
        <time>2015-03-19T12:52:13Z</time>
      </trkpt>
      <trkpt lat="42.94594" lon="0.17455">
        <ele>2185.4</ele>
        <time>2015-03-19T12:52:23Z</time>
      </trkpt>
      <trkpt lat="42.94597" lon="0.17442">
        <ele>2183.4</ele>
        <time>2015-03-19T12:52:33Z</time>
      </trkpt>
      <trkpt lat="42.946" lon="0.1743">
        <ele>2181.4</ele>
        <time>2015-03-19T12:52:42Z</time>
      </trkpt>
      <trkpt lat="42.94603" lon="0.17405">
        <ele>2178.5</ele>
        <time>2015-03-19T12:53:00Z</time>
      </trkpt>
      <trkpt lat="42.94607" lon="0.17394">
        <ele>2177.6</ele>
        <time>2015-03-19T12:53:10Z</time>
      </trkpt>
      <trkpt lat="42.94611" lon="0.17382">
        <ele>2177.2</ele>
        <time>2015-03-19T12:53:19Z</time>
      </trkpt>
      <trkpt lat="42.94615" lon="0.17371">
        <ele>2178.1</ele>
        <time>2015-03-19T12:53:29Z</time>
      </trkpt>
      <trkpt lat="42.94618" lon="0.17358">
        <ele>2178.8</ele>
        <time>2015-03-19T12:53:41Z</time>
      </trkpt>
      <trkpt lat="42.94621" lon="0.17346">
        <ele>2179.2</ele>
        <time>2015-03-19T12:53:55Z</time>
      </trkpt>
      <trkpt lat="42.94626" lon="0.17322">
        <ele>2180</ele>
        <time>2015-03-19T12:54:16Z</time>
      </trkpt>
      <trkpt lat="42.94626" lon="0.17309">
        <ele>2179.5</ele>
        <time>2015-03-19T12:54:28Z</time>
      </trkpt>
      <trkpt lat="42.94627" lon="0.17296">
        <ele>2178.9</ele>
        <time>2015-03-19T12:54:36Z</time>
      </trkpt>
      <trkpt lat="42.94628" lon="0.17283">
        <ele>2177.2</ele>
        <time>2015-03-19T12:54:45Z</time>
      </trkpt>
      <trkpt lat="42.94632" lon="0.1727">
        <ele>2177.2</ele>
        <time>2015-03-19T12:54:55Z</time>
      </trkpt>
      <trkpt lat="42.94634" lon="0.17258">
        <ele>2176.5</ele>
        <time>2015-03-19T12:55:06Z</time>
      </trkpt>
      <trkpt lat="42.94641" lon="0.17235">
        <ele>2178</ele>
        <time>2015-03-19T12:55:30Z</time>
      </trkpt>
      <trkpt lat="42.94644" lon="0.17222">
        <ele>2178.9</ele>
        <time>2015-03-19T12:55:42Z</time>
      </trkpt>
      <trkpt lat="42.94646" lon="0.1721">
        <ele>2178.6</ele>
        <time>2015-03-19T12:55:53Z</time>
      </trkpt>
      <trkpt lat="42.94648" lon="0.17198">
        <ele>2179.4</ele>
        <time>2015-03-19T12:56:22Z</time>
      </trkpt>
      <trkpt lat="42.94655" lon="0.17174">
        <ele>2183.7</ele>
        <time>2015-03-19T12:56:51Z</time>
      </trkpt>
      <trkpt lat="42.94657" lon="0.17162">
        <ele>2186</ele>
        <time>2015-03-19T12:57:17Z</time>
      </trkpt>
      <trkpt lat="42.94658" lon="0.17149">
        <ele>2188.8</ele>
        <time>2015-03-19T12:57:34Z</time>
      </trkpt>
      <trkpt lat="42.94659" lon="0.17123">
        <ele>2192.8</ele>
        <time>2015-03-19T12:58:14Z</time>
      </trkpt>
      <trkpt lat="42.94663" lon="0.17112">
        <ele>2196.3</ele>
        <time>2015-03-19T12:58:38Z</time>
      </trkpt>
      <trkpt lat="42.9468" lon="0.171">
        <ele>2199.9</ele>
        <time>2015-03-19T12:59:15Z</time>
      </trkpt>
      <trkpt lat="42.94688" lon="0.17094">
        <ele>2203.2</ele>
        <time>2015-03-19T12:59:37Z</time>
      </trkpt>
      <trkpt lat="42.94696" lon="0.17088">
        <ele>2205.2</ele>
        <time>2015-03-19T12:59:56Z</time>
      </trkpt>
      <trkpt lat="42.94711" lon="0.17074">
        <ele>2209.2</ele>
        <time>2015-03-19T13:00:29Z</time>
      </trkpt>
      <trkpt lat="42.94719" lon="0.17066">
        <ele>2209.8</ele>
        <time>2015-03-19T13:00:41Z</time>
      </trkpt>
      <trkpt lat="42.94727" lon="0.17059">
        <ele>2211.4</ele>
        <time>2015-03-19T13:00:53Z</time>
      </trkpt>
      <trkpt lat="42.94735" lon="0.17053">
        <ele>2213.9</ele>
        <time>2015-03-19T13:01:06Z</time>
      </trkpt>
      <trkpt lat="42.94748" lon="0.17036">
        <ele>2218.4</ele>
        <time>2015-03-19T13:01:38Z</time>
      </trkpt>
      <trkpt lat="42.94755" lon="0.17027">
        <ele>2221.6</ele>
        <time>2015-03-19T13:01:53Z</time>
      </trkpt>
      <trkpt lat="42.94763" lon="0.17022">
        <ele>2223.6</ele>
        <time>2015-03-19T13:02:09Z</time>
      </trkpt>
      <trkpt lat="42.94781" lon="0.17022">
        <ele>2227.3</ele>
        <time>2015-03-19T13:02:40Z</time>
      </trkpt>
      <trkpt lat="42.94789" lon="0.17026">
        <ele>2231.7</ele>
        <time>2015-03-19T13:02:58Z</time>
      </trkpt>
      <trkpt lat="42.94796" lon="0.17016">
        <ele>2234.8</ele>
        <time>2015-03-19T13:03:17Z</time>
      </trkpt>
      <trkpt lat="42.94814" lon="0.17018">
        <ele>2241.5</ele>
        <time>2015-03-19T13:04:01Z</time>
      </trkpt>
      <trkpt lat="42.94823" lon="0.17016">
        <ele>2244.4</ele>
        <time>2015-03-19T13:04:18Z</time>
      </trkpt>
      <trkpt lat="42.9484" lon="0.17023">
        <ele>2249.5</ele>
        <time>2015-03-19T13:04:50Z</time>
      </trkpt>
      <trkpt lat="42.94849" lon="0.17022">
        <ele>2252.5</ele>
        <time>2015-03-19T13:05:08Z</time>
      </trkpt>
      <trkpt lat="42.94858" lon="0.17024">
        <ele>2257.7</ele>
        <time>2015-03-19T13:05:31Z</time>
      </trkpt>
      <trkpt lat="42.94876" lon="0.17029">
        <ele>2265.1</ele>
        <time>2015-03-19T13:06:16Z</time>
      </trkpt>
      <trkpt lat="42.94884" lon="0.17022">
        <ele>2267.3</ele>
        <time>2015-03-19T13:06:31Z</time>
      </trkpt>
      <trkpt lat="42.94892" lon="0.17029">
        <ele>2270.3</ele>
        <time>2015-03-19T13:06:49Z</time>
      </trkpt>
      <trkpt lat="42.94909" lon="0.17037">
        <ele>2275.9</ele>
        <time>2015-03-19T13:07:24Z</time>
      </trkpt>
      <trkpt lat="42.94916" lon="0.17045">
        <ele>2278.5</ele>
        <time>2015-03-19T13:07:43Z</time>
      </trkpt>
      <trkpt lat="42.94922" lon="0.17054">
        <ele>2281</ele>
        <time>2015-03-19T13:08:03Z</time>
      </trkpt>
      <trkpt lat="42.9494" lon="0.17055">
        <ele>2288.3</ele>
        <time>2015-03-19T13:08:43Z</time>
      </trkpt>
      <trkpt lat="42.94949" lon="0.17049">
        <ele>2290.1</ele>
        <time>2015-03-19T13:08:57Z</time>
      </trkpt>
      <trkpt lat="42.94958" lon="0.1705">
        <ele>2293</ele>
        <time>2015-03-19T13:09:21Z</time>
      </trkpt>
      <trkpt lat="42.94975" lon="0.17055">
        <ele>2298.9</ele>
        <time>2015-03-19T13:09:57Z</time>
      </trkpt>
      <trkpt lat="42.94984" lon="0.17057">
        <ele>2300.9</ele>
        <time>2015-03-19T13:10:13Z</time>
      </trkpt>
      <trkpt lat="42.94994" lon="0.17057">
        <ele>2303.2</ele>
        <time>2015-03-19T13:10:29Z</time>
      </trkpt>
      <trkpt lat="42.95004" lon="0.17045">
        <ele>2303.3</ele>
        <time>2015-03-19T13:17:56Z</time>
      </trkpt>
      <trkpt lat="42.95019" lon="0.17031">
        <ele>2296.2</ele>
        <time>2015-03-19T13:18:48Z</time>
      </trkpt>
      <trkpt lat="42.95021" lon="0.17018">
        <ele>2292</ele>
        <time>2015-03-19T13:19:01Z</time>
      </trkpt>
      <trkpt lat="42.95021" lon="0.16992">
        <ele>2285.8</ele>
        <time>2015-03-19T13:19:26Z</time>
      </trkpt>
      <trkpt lat="42.95017" lon="0.16981">
        <ele>2281.2</ele>
        <time>2015-03-19T13:19:40Z</time>
      </trkpt>
      <trkpt lat="42.95018" lon="0.16968">
        <ele>2276</ele>
        <time>2015-03-19T13:19:57Z</time>
      </trkpt>
      <trkpt lat="42.95024" lon="0.16959">
        <ele>2272.7</ele>
        <time>2015-03-19T13:20:10Z</time>
      </trkpt>
      <trkpt lat="42.95035" lon="0.16938">
        <ele>2264.7</ele>
        <time>2015-03-19T13:20:41Z</time>
      </trkpt>
      <trkpt lat="42.95042" lon="0.1693">
        <ele>2259.7</ele>
        <time>2015-03-19T13:22:15Z</time>
      </trkpt>
      <trkpt lat="42.95007" lon="0.16897">
        <ele>2235.3</ele>
        <time>2015-03-19T13:26:39Z</time>
      </trkpt>
      <trkpt lat="42.94999" lon="0.1689">
        <ele>2232.5</ele>
        <time>2015-03-19T13:27:00Z</time>
      </trkpt>
      <trkpt lat="42.94986" lon="0.16871">
        <ele>2227.5</ele>
        <time>2015-03-19T13:27:20Z</time>
      </trkpt>
      <trkpt lat="42.94988" lon="0.16855">
        <ele>2226</ele>
        <time>2015-03-19T13:28:24Z</time>
      </trkpt>
      <trkpt lat="42.9498" lon="0.1686">
        <ele>2225.6</ele>
        <time>2015-03-19T13:30:22Z</time>
      </trkpt>
      <trkpt lat="42.94968" lon="0.16841">
        <ele>2223.7</ele>
        <time>2015-03-19T13:30:43Z</time>
      </trkpt>
      <trkpt lat="42.94961" lon="0.16831">
        <ele>2222.4</ele>
        <time>2015-03-19T13:30:54Z</time>
      </trkpt>
      <trkpt lat="42.94955" lon="0.1682">
        <ele>2221.3</ele>
        <time>2015-03-19T13:31:04Z</time>
      </trkpt>
      <trkpt lat="42.94952" lon="0.16808">
        <ele>2219</ele>
        <time>2015-03-19T13:31:14Z</time>
      </trkpt>
      <trkpt lat="42.94952" lon="0.16795">
        <ele>2217.5</ele>
        <time>2015-03-19T13:31:23Z</time>
      </trkpt>
      <trkpt lat="42.94939" lon="0.16778">
        <ele>2212.1</ele>
        <time>2015-03-19T13:31:46Z</time>
      </trkpt>
      <trkpt lat="42.9493" lon="0.16772">
        <ele>2207.5</ele>
        <time>2015-03-19T13:31:59Z</time>
      </trkpt>
      <trkpt lat="42.94923" lon="0.16765">
        <ele>2203.6</ele>
        <time>2015-03-19T13:32:12Z</time>
      </trkpt>
      <trkpt lat="42.94915" lon="0.16757">
        <ele>2198.9</ele>
        <time>2015-03-19T13:32:25Z</time>
      </trkpt>
      <trkpt lat="42.94902" lon="0.16739">
        <ele>2192.5</ele>
        <time>2015-03-19T13:32:44Z</time>
      </trkpt>
      <trkpt lat="42.94894" lon="0.1673">
        <ele>2189.2</ele>
        <time>2015-03-19T13:32:54Z</time>
      </trkpt>
      <trkpt lat="42.94893" lon="0.16718">
        <ele>2187.9</ele>
        <time>2015-03-19T13:33:05Z</time>
      </trkpt>
      <trkpt lat="42.94898" lon="0.16707">
        <ele>2186.2</ele>
        <time>2015-03-19T13:33:14Z</time>
      </trkpt>
      <trkpt lat="42.94903" lon="0.16696">
        <ele>2185.2</ele>
        <time>2015-03-19T13:33:25Z</time>
      </trkpt>
      <trkpt lat="42.94911" lon="0.1669">
        <ele>2185.1</ele>
        <time>2015-03-19T13:33:36Z</time>
      </trkpt>
      <trkpt lat="42.94925" lon="0.16673">
        <ele>2186</ele>
        <time>2015-03-19T13:33:56Z</time>
      </trkpt>
      <trkpt lat="42.94932" lon="0.16664">
        <ele>2187.1</ele>
        <time>2015-03-19T13:34:07Z</time>
      </trkpt>
      <trkpt lat="42.94939" lon="0.16655">
        <ele>2187.9</ele>
        <time>2015-03-19T13:34:19Z</time>
      </trkpt>
      <trkpt lat="42.94946" lon="0.16648">
        <ele>2187.8</ele>
        <time>2015-03-19T13:34:39Z</time>
      </trkpt>
      <trkpt lat="42.94964" lon="0.16642">
        <ele>2190.1</ele>
        <time>2015-03-19T13:35:22Z</time>
      </trkpt>
      <trkpt lat="42.94972" lon="0.16636">
        <ele>2192.2</ele>
        <time>2015-03-19T13:35:38Z</time>
      </trkpt>
      <trkpt lat="42.94981" lon="0.16632">
        <ele>2194.3</ele>
        <time>2015-03-19T13:35:51Z</time>
      </trkpt>
      <trkpt lat="42.94998" lon="0.16625">
        <ele>2194</ele>
        <time>2015-03-19T13:36:15Z</time>
      </trkpt>
      <trkpt lat="42.95007" lon="0.16623">
        <ele>2193.6</ele>
        <time>2015-03-19T13:36:26Z</time>
      </trkpt>
      <trkpt lat="42.95017" lon="0.16623">
        <ele>2192.4</ele>
        <time>2015-03-19T13:36:38Z</time>
      </trkpt>
      <trkpt lat="42.95025" lon="0.16618">
        <ele>2189</ele>
        <time>2015-03-19T13:36:50Z</time>
      </trkpt>
      <trkpt lat="42.95031" lon="0.16608">
        <ele>2184.4</ele>
        <time>2015-03-19T13:37:03Z</time>
      </trkpt>
      <trkpt lat="42.95017" lon="0.16595">
        <ele>2177.4</ele>
        <time>2015-03-19T13:37:39Z</time>
      </trkpt>
      <trkpt lat="42.95007" lon="0.16596">
        <ele>2174.4</ele>
        <time>2015-03-19T13:37:59Z</time>
      </trkpt>
      <trkpt lat="42.94998" lon="0.16593">
        <ele>2171.2</ele>
        <time>2015-03-19T13:38:18Z</time>
      </trkpt>
      <trkpt lat="42.95001" lon="0.1657">
        <ele>2162.6</ele>
        <time>2015-03-19T13:39:04Z</time>
      </trkpt>
      <trkpt lat="42.95008" lon="0.16562">
        <ele>2160.4</ele>
        <time>2015-03-19T13:39:19Z</time>
      </trkpt>
      <trkpt lat="42.9502" lon="0.16544">
        <ele>2154.4</ele>
        <time>2015-03-19T13:40:01Z</time>
      </trkpt>
      <trkpt lat="42.95015" lon="0.16533">
        <ele>2150</ele>
        <time>2015-03-19T13:40:47Z</time>
      </trkpt>
      <trkpt lat="42.95018" lon="0.16509">
        <ele>2142.5</ele>
        <time>2015-03-19T13:41:28Z</time>
      </trkpt>
      <trkpt lat="42.95013" lon="0.16498">
        <ele>2136.5</ele>
        <time>2015-03-19T13:41:40Z</time>
      </trkpt>
      <trkpt lat="42.95006" lon="0.16491">
        <ele>2131.2</ele>
        <time>2015-03-19T13:41:52Z</time>
      </trkpt>
      <trkpt lat="42.94993" lon="0.16473">
        <ele>2122.9</ele>
        <time>2015-03-19T13:42:34Z</time>
      </trkpt>
      <trkpt lat="42.94984" lon="0.1647">
        <ele>2123.4</ele>
        <time>2015-03-19T13:42:59Z</time>
      </trkpt>
      <trkpt lat="42.94979" lon="0.16478">
        <ele>2121.9</ele>
        <time>2015-03-19T13:45:04Z</time>
      </trkpt>
      <trkpt lat="42.94976" lon="0.16472">
        <ele>2120.9</ele>
        <time>2015-03-19T13:46:11Z</time>
      </trkpt>
      <trkpt lat="42.94956" lon="0.16466">
        <ele>2116.5</ele>
        <time>2015-03-19T13:46:24Z</time>
      </trkpt>
      <trkpt lat="42.94947" lon="0.16463">
        <ele>2114.5</ele>
        <time>2015-03-19T13:46:30Z</time>
      </trkpt>
      <trkpt lat="42.94938" lon="0.16457">
        <ele>2113</ele>
        <time>2015-03-19T13:46:37Z</time>
      </trkpt>
      <trkpt lat="42.94929" lon="0.16453">
        <ele>2110.2</ele>
        <time>2015-03-19T13:46:44Z</time>
      </trkpt>
      <trkpt lat="42.9492" lon="0.16448">
        <ele>2108</ele>
        <time>2015-03-19T13:46:51Z</time>
      </trkpt>
      <trkpt lat="42.94911" lon="0.16444">
        <ele>2105.1</ele>
        <time>2015-03-19T13:46:57Z</time>
      </trkpt>
      <trkpt lat="42.94902" lon="0.16441">
        <ele>2102.1</ele>
        <time>2015-03-19T13:47:04Z</time>
      </trkpt>
      <trkpt lat="42.94892" lon="0.16439">
        <ele>2099.6</ele>
        <time>2015-03-19T13:47:12Z</time>
      </trkpt>
      <trkpt lat="42.94873" lon="0.16432">
        <ele>2093.9</ele>
        <time>2015-03-19T13:47:40Z</time>
      </trkpt>
      <trkpt lat="42.94864" lon="0.16433">
        <ele>2092.2</ele>
        <time>2015-03-19T13:47:48Z</time>
      </trkpt>
      <trkpt lat="42.94854" lon="0.16432">
        <ele>2089.8</ele>
        <time>2015-03-19T13:47:55Z</time>
      </trkpt>
      <trkpt lat="42.94845" lon="0.16433">
        <ele>2088.5</ele>
        <time>2015-03-19T13:48:02Z</time>
      </trkpt>
      <trkpt lat="42.94836" lon="0.16434">
        <ele>2086.8</ele>
        <time>2015-03-19T13:48:09Z</time>
      </trkpt>
      <trkpt lat="42.94826" lon="0.16438">
        <ele>2085.1</ele>
        <time>2015-03-19T13:48:17Z</time>
      </trkpt>
      <trkpt lat="42.94808" lon="0.16449">
        <ele>2080.9</ele>
        <time>2015-03-19T13:48:39Z</time>
      </trkpt>
      <trkpt lat="42.94802" lon="0.16457">
        <ele>2076.4</ele>
        <time>2015-03-19T13:49:01Z</time>
      </trkpt>
      <trkpt lat="42.94795" lon="0.16467">
        <ele>2075.2</ele>
        <time>2015-03-19T13:49:19Z</time>
      </trkpt>
      <trkpt lat="42.94778" lon="0.16477">
        <ele>2069.6</ele>
        <time>2015-03-19T13:49:47Z</time>
      </trkpt>
      <trkpt lat="42.94769" lon="0.16476">
        <ele>2065.8</ele>
        <time>2015-03-19T13:50:13Z</time>
      </trkpt>
      <trkpt lat="42.94759" lon="0.1648">
        <ele>2063.9</ele>
        <time>2015-03-19T13:50:22Z</time>
      </trkpt>
      <trkpt lat="42.94741" lon="0.16487">
        <ele>2059.5</ele>
        <time>2015-03-19T13:50:42Z</time>
      </trkpt>
      <trkpt lat="42.94732" lon="0.16489">
        <ele>2056.5</ele>
        <time>2015-03-19T13:50:54Z</time>
      </trkpt>
      <trkpt lat="42.94723" lon="0.16491">
        <ele>2054.3</ele>
        <time>2015-03-19T13:51:06Z</time>
      </trkpt>
      <trkpt lat="42.94715" lon="0.16484">
        <ele>2050.6</ele>
        <time>2015-03-19T13:51:17Z</time>
      </trkpt>
      <trkpt lat="42.94707" lon="0.16476">
        <ele>2044.3</ele>
        <time>2015-03-19T13:51:29Z</time>
      </trkpt>
      <trkpt lat="42.94699" lon="0.16452">
        <ele>2037</ele>
        <time>2015-03-19T13:51:47Z</time>
      </trkpt>
      <trkpt lat="42.94695" lon="0.1644">
        <ele>2034.7</ele>
        <time>2015-03-19T13:51:57Z</time>
      </trkpt>
      <trkpt lat="42.94692" lon="0.16429">
        <ele>2032.3</ele>
        <time>2015-03-19T13:52:05Z</time>
      </trkpt>
      <trkpt lat="42.94688" lon="0.16417">
        <ele>2031.2</ele>
        <time>2015-03-19T13:52:12Z</time>
      </trkpt>
      <trkpt lat="42.94684" lon="0.16406">
        <ele>2028.7</ele>
        <time>2015-03-19T13:52:19Z</time>
      </trkpt>
      <trkpt lat="42.9468" lon="0.16394">
        <ele>2026.8</ele>
        <time>2015-03-19T13:52:26Z</time>
      </trkpt>
      <trkpt lat="42.94676" lon="0.16382">
        <ele>2025.6</ele>
        <time>2015-03-19T13:52:33Z</time>
      </trkpt>
      <trkpt lat="42.94671" lon="0.16357">
        <ele>2021.8</ele>
        <time>2015-03-19T13:52:47Z</time>
      </trkpt>
      <trkpt lat="42.94668" lon="0.16344">
        <ele>2020.9</ele>
        <time>2015-03-19T13:52:55Z</time>
      </trkpt>
      <trkpt lat="42.94663" lon="0.16332">
        <ele>2020.5</ele>
        <time>2015-03-19T13:53:03Z</time>
      </trkpt>
      <trkpt lat="42.94658" lon="0.1632">
        <ele>2020.7</ele>
        <time>2015-03-19T13:53:10Z</time>
      </trkpt>
      <trkpt lat="42.94654" lon="0.1631">
        <ele>2019.3</ele>
        <time>2015-03-19T13:53:17Z</time>
      </trkpt>
      <trkpt lat="42.94649" lon="0.16298">
        <ele>2017.7</ele>
        <time>2015-03-19T13:53:26Z</time>
      </trkpt>
      <trkpt lat="42.94645" lon="0.16287">
        <ele>2015.4</ele>
        <time>2015-03-19T13:53:35Z</time>
      </trkpt>
      <trkpt lat="42.94635" lon="0.16265">
        <ele>2010.4</ele>
        <time>2015-03-19T13:53:54Z</time>
      </trkpt>
      <trkpt lat="42.94629" lon="0.16255">
        <ele>2008.3</ele>
        <time>2015-03-19T13:54:02Z</time>
      </trkpt>
      <trkpt lat="42.94623" lon="0.16244">
        <ele>2005.2</ele>
        <time>2015-03-19T13:54:10Z</time>
      </trkpt>
      <trkpt lat="42.94615" lon="0.16235">
        <ele>2003</ele>
        <time>2015-03-19T13:54:19Z</time>
      </trkpt>
      <trkpt lat="42.94607" lon="0.16229">
        <ele>2001.4</ele>
        <time>2015-03-19T13:54:27Z</time>
      </trkpt>
      <trkpt lat="42.94598" lon="0.16225">
        <ele>2000.6</ele>
        <time>2015-03-19T13:54:34Z</time>
      </trkpt>
      <trkpt lat="42.94588" lon="0.16223">
        <ele>1998.3</ele>
        <time>2015-03-19T13:54:42Z</time>
      </trkpt>
      <trkpt lat="42.9457" lon="0.16222">
        <ele>1994.1</ele>
        <time>2015-03-19T13:54:59Z</time>
      </trkpt>
      <trkpt lat="42.9456" lon="0.16217">
        <ele>1991.9</ele>
        <time>2015-03-19T13:55:10Z</time>
      </trkpt>
      <trkpt lat="42.94551" lon="0.1622">
        <ele>1986.6</ele>
        <time>2015-03-19T13:55:22Z</time>
      </trkpt>
      <trkpt lat="42.94542" lon="0.1622">
        <ele>1981.7</ele>
        <time>2015-03-19T13:55:36Z</time>
      </trkpt>
      <trkpt lat="42.94535" lon="0.16213">
        <ele>1976.3</ele>
        <time>2015-03-19T13:55:57Z</time>
      </trkpt>
      <trkpt lat="42.94519" lon="0.16201">
        <ele>1963.7</ele>
        <time>2015-03-19T13:56:39Z</time>
      </trkpt>
      <trkpt lat="42.94509" lon="0.16198">
        <ele>1959</ele>
        <time>2015-03-19T13:56:54Z</time>
      </trkpt>
      <trkpt lat="42.945" lon="0.16195">
        <ele>1953.8</ele>
        <time>2015-03-19T13:57:03Z</time>
      </trkpt>
      <trkpt lat="42.9448" lon="0.16195">
        <ele>1945.5</ele>
        <time>2015-03-19T13:57:21Z</time>
      </trkpt>
      <trkpt lat="42.94471" lon="0.16196">
        <ele>1941.6</ele>
        <time>2015-03-19T13:57:31Z</time>
      </trkpt>
      <trkpt lat="42.9448" lon="0.16193">
        <ele>1940</ele>
        <time>2015-03-19T13:58:34Z</time>
      </trkpt>
      <trkpt lat="42.94458" lon="0.16206">
        <ele>1937.7</ele>
        <time>2015-03-19T14:02:26Z</time>
      </trkpt>
      <trkpt lat="42.9444" lon="0.16202">
        <ele>1932.9</ele>
        <time>2015-03-19T14:02:45Z</time>
      </trkpt>
      <trkpt lat="42.9443" lon="0.16201">
        <ele>1930.7</ele>
        <time>2015-03-19T14:02:54Z</time>
      </trkpt>
      <trkpt lat="42.9442" lon="0.162">
        <ele>1929.1</ele>
        <time>2015-03-19T14:03:03Z</time>
      </trkpt>
      <trkpt lat="42.94411" lon="0.16202">
        <ele>1927.9</ele>
        <time>2015-03-19T14:03:11Z</time>
      </trkpt>
      <trkpt lat="42.94401" lon="0.16202">
        <ele>1927.4</ele>
        <time>2015-03-19T14:03:19Z</time>
      </trkpt>
      <trkpt lat="42.94391" lon="0.16202">
        <ele>1926.7</ele>
        <time>2015-03-19T14:03:29Z</time>
      </trkpt>
      <trkpt lat="42.94372" lon="0.16201">
        <ele>1925.5</ele>
        <time>2015-03-19T14:03:48Z</time>
      </trkpt>
      <trkpt lat="42.94363" lon="0.16201">
        <ele>1925</ele>
        <time>2015-03-19T14:03:57Z</time>
      </trkpt>
      <trkpt lat="42.94354" lon="0.16198">
        <ele>1925.3</ele>
        <time>2015-03-19T14:04:06Z</time>
      </trkpt>
      <trkpt lat="42.94344" lon="0.16197">
        <ele>1925.3</ele>
        <time>2015-03-19T14:04:15Z</time>
      </trkpt>
      <trkpt lat="42.94335" lon="0.16198">
        <ele>1924.1</ele>
        <time>2015-03-19T14:04:24Z</time>
      </trkpt>
      <trkpt lat="42.94326" lon="0.16203">
        <ele>1923.7</ele>
        <time>2015-03-19T14:04:33Z</time>
      </trkpt>
      <trkpt lat="42.94309" lon="0.16212">
        <ele>1920.3</ele>
        <time>2015-03-19T14:04:52Z</time>
      </trkpt>
      <trkpt lat="42.94299" lon="0.16212">
        <ele>1918.5</ele>
        <time>2015-03-19T14:05:03Z</time>
      </trkpt>
      <trkpt lat="42.94291" lon="0.16205">
        <ele>1917.3</ele>
        <time>2015-03-19T14:05:13Z</time>
      </trkpt>
      <trkpt lat="42.9428" lon="0.16201">
        <ele>1915.1</ele>
        <time>2015-03-19T14:05:25Z</time>
      </trkpt>
      <trkpt lat="42.9427" lon="0.162">
        <ele>1913.2</ele>
        <time>2015-03-19T14:05:33Z</time>
      </trkpt>
      <trkpt lat="42.94261" lon="0.162">
        <ele>1909.9</ele>
        <time>2015-03-19T14:05:42Z</time>
      </trkpt>
      <trkpt lat="42.94243" lon="0.16202">
        <ele>1906</ele>
        <time>2015-03-19T14:06:03Z</time>
      </trkpt>
      <trkpt lat="42.94233" lon="0.16204">
        <ele>1904</ele>
        <time>2015-03-19T14:06:13Z</time>
      </trkpt>
      <trkpt lat="42.94224" lon="0.16208">
        <ele>1901.2</ele>
        <time>2015-03-19T14:06:22Z</time>
      </trkpt>
      <trkpt lat="42.94215" lon="0.16212">
        <ele>1899.2</ele>
        <time>2015-03-19T14:06:32Z</time>
      </trkpt>
      <trkpt lat="42.94207" lon="0.16217">
        <ele>1896.8</ele>
        <time>2015-03-19T14:06:42Z</time>
      </trkpt>
      <trkpt lat="42.94198" lon="0.16223">
        <ele>1895.3</ele>
        <time>2015-03-19T14:06:51Z</time>
      </trkpt>
      <trkpt lat="42.9418" lon="0.1623">
        <ele>1890.4</ele>
        <time>2015-03-19T14:07:09Z</time>
      </trkpt>
      <trkpt lat="42.9417" lon="0.16232">
        <ele>1888.2</ele>
        <time>2015-03-19T14:07:19Z</time>
      </trkpt>
      <trkpt lat="42.94162" lon="0.16236">
        <ele>1886.6</ele>
        <time>2015-03-19T14:07:24Z</time>
      </trkpt>
      <trkpt lat="42.94153" lon="0.16238">
        <ele>1884.6</ele>
        <time>2015-03-19T14:07:30Z</time>
      </trkpt>
      <trkpt lat="42.94144" lon="0.16239">
        <ele>1882.6</ele>
        <time>2015-03-19T14:07:39Z</time>
      </trkpt>
      <trkpt lat="42.94134" lon="0.16238">
        <ele>1880.6</ele>
        <time>2015-03-19T14:07:51Z</time>
      </trkpt>
      <trkpt lat="42.94125" lon="0.16238">
        <ele>1879.3</ele>
        <time>2015-03-19T14:08:00Z</time>
      </trkpt>
      <trkpt lat="42.94106" lon="0.1623">
        <ele>1875.2</ele>
        <time>2015-03-19T14:08:15Z</time>
      </trkpt>
      <trkpt lat="42.94097" lon="0.16226">
        <ele>1873.4</ele>
        <time>2015-03-19T14:08:23Z</time>
      </trkpt>
      <trkpt lat="42.94088" lon="0.16221">
        <ele>1872</ele>
        <time>2015-03-19T14:08:31Z</time>
      </trkpt>
      <trkpt lat="42.94079" lon="0.16216">
        <ele>1870.2</ele>
        <time>2015-03-19T14:08:39Z</time>
      </trkpt>
      <trkpt lat="42.9407" lon="0.16213">
        <ele>1868.6</ele>
        <time>2015-03-19T14:08:48Z</time>
      </trkpt>
      <trkpt lat="42.94061" lon="0.16209">
        <ele>1866.4</ele>
        <time>2015-03-19T14:08:56Z</time>
      </trkpt>
      <trkpt lat="42.94052" lon="0.16207">
        <ele>1864.5</ele>
        <time>2015-03-19T14:09:04Z</time>
      </trkpt>
      <trkpt lat="42.94033" lon="0.16203">
        <ele>1861.4</ele>
        <time>2015-03-19T14:09:22Z</time>
      </trkpt>
      <trkpt lat="42.94023" lon="0.16201">
        <ele>1858.9</ele>
        <time>2015-03-19T14:09:32Z</time>
      </trkpt>
      <trkpt lat="42.94013" lon="0.16202">
        <ele>1855.3</ele>
        <time>2015-03-19T14:09:41Z</time>
      </trkpt>
      <trkpt lat="42.94004" lon="0.16207">
        <ele>1852.6</ele>
        <time>2015-03-19T14:09:50Z</time>
      </trkpt>
      <trkpt lat="42.93996" lon="0.16212">
        <ele>1850.7</ele>
        <time>2015-03-19T14:09:58Z</time>
      </trkpt>
      <trkpt lat="42.93987" lon="0.16217">
        <ele>1847.3</ele>
        <time>2015-03-19T14:10:09Z</time>
      </trkpt>
      <trkpt lat="42.93968" lon="0.16221">
        <ele>1840.7</ele>
        <time>2015-03-19T14:10:30Z</time>
      </trkpt>
      <trkpt lat="42.93959" lon="0.16219">
        <ele>1839</ele>
        <time>2015-03-19T14:10:56Z</time>
      </trkpt>
      <trkpt lat="42.93949" lon="0.1622">
        <ele>1835.7</ele>
        <time>2015-03-19T14:11:06Z</time>
      </trkpt>
      <trkpt lat="42.9394" lon="0.1622">
        <ele>1833.2</ele>
        <time>2015-03-19T14:11:15Z</time>
      </trkpt>
      <trkpt lat="42.93922" lon="0.16217">
        <ele>1828.4</ele>
        <time>2015-03-19T14:11:33Z</time>
      </trkpt>
      <trkpt lat="42.93912" lon="0.16217">
        <ele>1826.5</ele>
        <time>2015-03-19T14:11:42Z</time>
      </trkpt>
      <trkpt lat="42.93903" lon="0.16218">
        <ele>1824.4</ele>
        <time>2015-03-19T14:11:51Z</time>
      </trkpt>
      <trkpt lat="42.93893" lon="0.16218">
        <ele>1822</ele>
        <time>2015-03-19T14:12:00Z</time>
      </trkpt>
      <trkpt lat="42.93884" lon="0.16219">
        <ele>1819.6</ele>
        <time>2015-03-19T14:12:09Z</time>
      </trkpt>
      <trkpt lat="42.93875" lon="0.1622">
        <ele>1817.7</ele>
        <time>2015-03-19T14:12:19Z</time>
      </trkpt>
      <trkpt lat="42.93856" lon="0.16226">
        <ele>1814</ele>
        <time>2015-03-19T14:12:38Z</time>
      </trkpt>
      <trkpt lat="42.93847" lon="0.16228">
        <ele>1811.4</ele>
        <time>2015-03-19T14:12:47Z</time>
      </trkpt>
      <trkpt lat="42.93837" lon="0.16231">
        <ele>1809.1</ele>
        <time>2015-03-19T14:12:56Z</time>
      </trkpt>
      <trkpt lat="42.93828" lon="0.16234">
        <ele>1808</ele>
        <time>2015-03-19T14:13:04Z</time>
      </trkpt>
      <trkpt lat="42.93819" lon="0.16238">
        <ele>1804.8</ele>
        <time>2015-03-19T14:13:12Z</time>
      </trkpt>
      <trkpt lat="42.93811" lon="0.16242">
        <ele>1802.6</ele>
        <time>2015-03-19T14:13:20Z</time>
      </trkpt>
      <trkpt lat="42.93792" lon="0.16251">
        <ele>1798.9</ele>
        <time>2015-03-19T14:13:38Z</time>
      </trkpt>
      <trkpt lat="42.93783" lon="0.16255">
        <ele>1796.6</ele>
        <time>2015-03-19T14:13:48Z</time>
      </trkpt>
      <trkpt lat="42.93774" lon="0.16261">
        <ele>1794.9</ele>
        <time>2015-03-19T14:13:58Z</time>
      </trkpt>
      <trkpt lat="42.93765" lon="0.16266">
        <ele>1792.6</ele>
        <time>2015-03-19T14:14:07Z</time>
      </trkpt>
      <trkpt lat="42.93756" lon="0.16273">
        <ele>1790.1</ele>
        <time>2015-03-19T14:14:17Z</time>
      </trkpt>
      <trkpt lat="42.93748" lon="0.16278">
        <ele>1788.4</ele>
        <time>2015-03-19T14:14:26Z</time>
      </trkpt>
      <trkpt lat="42.93731" lon="0.1629">
        <ele>1783.4</ele>
        <time>2015-03-19T14:14:46Z</time>
      </trkpt>
      <trkpt lat="42.93722" lon="0.16296">
        <ele>1780.3</ele>
        <time>2015-03-19T14:14:56Z</time>
      </trkpt>
      <trkpt lat="42.93713" lon="0.163">
        <ele>1778.6</ele>
        <time>2015-03-19T14:15:04Z</time>
      </trkpt>
      <trkpt lat="42.93705" lon="0.16306">
        <ele>1775.8</ele>
        <time>2015-03-19T14:15:13Z</time>
      </trkpt>
      <trkpt lat="42.93696" lon="0.1631">
        <ele>1773.7</ele>
        <time>2015-03-19T14:15:22Z</time>
      </trkpt>
      <trkpt lat="42.93688" lon="0.16317">
        <ele>1771</ele>
        <time>2015-03-19T14:15:33Z</time>
      </trkpt>
      <trkpt lat="42.9367" lon="0.16324">
        <ele>1769.6</ele>
        <time>2015-03-19T14:15:52Z</time>
      </trkpt>
      <trkpt lat="42.93661" lon="0.16325">
        <ele>1766.5</ele>
        <time>2015-03-19T14:16:02Z</time>
      </trkpt>
      <trkpt lat="42.93652" lon="0.16331">
        <ele>1765.3</ele>
        <time>2015-03-19T14:16:13Z</time>
      </trkpt>
      <trkpt lat="42.93645" lon="0.16339">
        <ele>1764.9</ele>
        <time>2015-03-19T14:16:24Z</time>
      </trkpt>
      <trkpt lat="42.93638" lon="0.16348">
        <ele>1764.3</ele>
        <time>2015-03-19T14:16:37Z</time>
      </trkpt>
      <trkpt lat="42.93624" lon="0.16364">
        <ele>1762.7</ele>
        <time>2015-03-19T14:16:55Z</time>
      </trkpt>
      <trkpt lat="42.93615" lon="0.1637">
        <ele>1762.1</ele>
        <time>2015-03-19T14:17:04Z</time>
      </trkpt>
      <trkpt lat="42.93607" lon="0.16377">
        <ele>1759.4</ele>
        <time>2015-03-19T14:17:13Z</time>
      </trkpt>
      <trkpt lat="42.93602" lon="0.16387">
        <ele>1758.9</ele>
        <time>2015-03-19T14:17:22Z</time>
      </trkpt>
      <trkpt lat="42.93595" lon="0.16395">
        <ele>1758</ele>
        <time>2015-03-19T14:17:30Z</time>
      </trkpt>
      <trkpt lat="42.93588" lon="0.16405">
        <ele>1756.8</ele>
        <time>2015-03-19T14:17:40Z</time>
      </trkpt>
      <trkpt lat="42.93577" lon="0.16425">
        <ele>1752.2</ele>
        <time>2015-03-19T14:18:10Z</time>
      </trkpt>
      <trkpt lat="42.93569" lon="0.16432">
        <ele>1749.4</ele>
        <time>2015-03-19T14:18:25Z</time>
      </trkpt>
      <trkpt lat="42.93564" lon="0.16443">
        <ele>1747.3</ele>
        <time>2015-03-19T14:18:35Z</time>
      </trkpt>
      <trkpt lat="42.93559" lon="0.16453">
        <ele>1746.8</ele>
        <time>2015-03-19T14:18:44Z</time>
      </trkpt>
      <trkpt lat="42.93547" lon="0.16473">
        <ele>1744.9</ele>
        <time>2015-03-19T14:19:02Z</time>
      </trkpt>
      <trkpt lat="42.93541" lon="0.16484">
        <ele>1744.2</ele>
        <time>2015-03-19T14:19:12Z</time>
      </trkpt>
      <trkpt lat="42.93532" lon="0.16497">
        <ele>1740</ele>
        <time>2015-03-19T14:19:29Z</time>
      </trkpt>
      <trkpt lat="42.93523" lon="0.16509">
        <ele>1738</ele>
        <time>2015-03-19T14:19:44Z</time>
      </trkpt>
      <trkpt lat="42.93496" lon="0.1655">
        <ele>1729</ele>
        <time>2015-03-19T14:20:31Z</time>
      </trkpt>
      <trkpt lat="42.93488" lon="0.16558">
        <ele>1726</ele>
        <time>2015-03-19T14:20:43Z</time>
      </trkpt>
      <trkpt lat="42.93469" lon="0.16582">
        <ele>1719.3</ele>
        <time>2015-03-19T14:21:16Z</time>
      </trkpt>
      <trkpt lat="42.93449" lon="0.16602">
        <ele>1715</ele>
        <time>2015-03-19T14:21:37Z</time>
      </trkpt>
      <trkpt lat="42.93437" lon="0.1661">
        <ele>1714</ele>
        <time>2015-03-19T14:21:48Z</time>
      </trkpt>
      <trkpt lat="42.93434" lon="0.16642">
        <ele>1709</ele>
        <time>2015-03-19T14:22:25Z</time>
      </trkpt>
      <trkpt lat="42.93419" lon="0.16663">
        <ele>1705</ele>
        <time>2015-03-19T14:22:48Z</time>
      </trkpt>
      <trkpt lat="42.93401" lon="0.16671">
        <ele>1702</ele>
        <time>2015-03-19T14:23:02Z</time>
      </trkpt>
      <trkpt lat="42.93397" lon="0.16686">
        <ele>1698</ele>
        <time>2015-03-19T14:23:18Z</time>
      </trkpt>
      <trkpt lat="42.93388" lon="0.16693">
        <ele>1697</ele>
        <time>2015-03-19T14:23:26Z</time>
      </trkpt>
      <trkpt lat="42.93381" lon="0.16702">
        <ele>1695.9</ele>
        <time>2015-03-19T14:23:36Z</time>
      </trkpt>
      <trkpt lat="42.93374" lon="0.16711">
        <ele>1694.7</ele>
        <time>2015-03-19T14:23:43Z</time>
      </trkpt>
      <trkpt lat="42.93368" lon="0.1672">
        <ele>1692.9</ele>
        <time>2015-03-19T14:23:51Z</time>
      </trkpt>
      <trkpt lat="42.93362" lon="0.16731">
        <ele>1692.8</ele>
        <time>2015-03-19T14:24:03Z</time>
      </trkpt>
      <trkpt lat="42.93354" lon="0.16754">
        <ele>1691.8</ele>
        <time>2015-03-19T14:24:21Z</time>
      </trkpt>
      <trkpt lat="42.93349" lon="0.16765">
        <ele>1691</ele>
        <time>2015-03-19T14:24:31Z</time>
      </trkpt>
      <trkpt lat="42.93343" lon="0.16776">
        <ele>1690.5</ele>
        <time>2015-03-19T14:24:41Z</time>
      </trkpt>
      <trkpt lat="42.93339" lon="0.16788">
        <ele>1689.9</ele>
        <time>2015-03-19T14:24:51Z</time>
      </trkpt>
      <trkpt lat="42.93334" lon="0.16799">
        <ele>1690</ele>
        <time>2015-03-19T14:25:01Z</time>
      </trkpt>
      <trkpt lat="42.9333" lon="0.16811">
        <ele>1690.5</ele>
        <time>2015-03-19T14:25:12Z</time>
      </trkpt>
      <trkpt lat="42.93319" lon="0.16832">
        <ele>1691.3</ele>
        <time>2015-03-19T14:25:36Z</time>
      </trkpt>
      <trkpt lat="42.93314" lon="0.16842">
        <ele>1691.3</ele>
        <time>2015-03-19T14:25:46Z</time>
      </trkpt>
      <trkpt lat="42.93309" lon="0.16854">
        <ele>1690.1</ele>
        <time>2015-03-19T14:25:56Z</time>
      </trkpt>
      <trkpt lat="42.93304" lon="0.16865">
        <ele>1689.7</ele>
        <time>2015-03-19T14:26:05Z</time>
      </trkpt>
      <trkpt lat="42.93299" lon="0.16876">
        <ele>1689</ele>
        <time>2015-03-19T14:26:14Z</time>
      </trkpt>
      <trkpt lat="42.9329" lon="0.16898">
        <ele>1685.6</ele>
        <time>2015-03-19T14:26:33Z</time>
      </trkpt>
      <trkpt lat="42.93289" lon="0.16911">
        <ele>1685.3</ele>
        <time>2015-03-19T14:26:43Z</time>
      </trkpt>
      <trkpt lat="42.93291" lon="0.16923">
        <ele>1683.7</ele>
        <time>2015-03-19T14:26:52Z</time>
      </trkpt>
      <trkpt lat="42.93294" lon="0.16936">
        <ele>1681.7</ele>
        <time>2015-03-19T14:27:01Z</time>
      </trkpt>
      <trkpt lat="42.93293" lon="0.16948">
        <ele>1679.7</ele>
        <time>2015-03-19T14:27:10Z</time>
      </trkpt>
      <trkpt lat="42.93293" lon="0.16961">
        <ele>1677.5</ele>
        <time>2015-03-19T14:27:19Z</time>
      </trkpt>
      <trkpt lat="42.9329" lon="0.16985">
        <ele>1675.1</ele>
        <time>2015-03-19T14:27:41Z</time>
      </trkpt>
      <trkpt lat="42.93285" lon="0.16996">
        <ele>1673.4</ele>
        <time>2015-03-19T14:27:51Z</time>
      </trkpt>
      <trkpt lat="42.9328" lon="0.17007">
        <ele>1670.4</ele>
        <time>2015-03-19T14:28:02Z</time>
      </trkpt>
      <trkpt lat="42.93276" lon="0.17019">
        <ele>1668.2</ele>
        <time>2015-03-19T14:28:14Z</time>
      </trkpt>
      <trkpt lat="42.93276" lon="0.17031">
        <ele>1665.6</ele>
        <time>2015-03-19T14:28:23Z</time>
      </trkpt>
      <trkpt lat="42.93278" lon="0.17057">
        <ele>1661.8</ele>
        <time>2015-03-19T14:28:41Z</time>
      </trkpt>
      <trkpt lat="42.9328" lon="0.17069">
        <ele>1661</ele>
        <time>2015-03-19T14:28:49Z</time>
      </trkpt>
      <trkpt lat="42.9328" lon="0.17082">
        <ele>1659.5</ele>
        <time>2015-03-19T14:28:58Z</time>
      </trkpt>
      <trkpt lat="42.93279" lon="0.17095">
        <ele>1657.2</ele>
        <time>2015-03-19T14:29:08Z</time>
      </trkpt>
      <trkpt lat="42.93276" lon="0.17109">
        <ele>1654.3</ele>
        <time>2015-03-19T14:29:18Z</time>
      </trkpt>
      <trkpt lat="42.93274" lon="0.17122">
        <ele>1654.1</ele>
        <time>2015-03-19T14:29:29Z</time>
      </trkpt>
      <trkpt lat="42.93273" lon="0.17147">
        <ele>1651.3</ele>
        <time>2015-03-19T14:29:50Z</time>
      </trkpt>
      <trkpt lat="42.93272" lon="0.1716">
        <ele>1650.5</ele>
        <time>2015-03-19T14:30:03Z</time>
      </trkpt>
      <trkpt lat="42.93272" lon="0.17173">
        <ele>1651</ele>
        <time>2015-03-19T14:30:18Z</time>
      </trkpt>
      <trkpt lat="42.9327" lon="0.17185">
        <ele>1650.7</ele>
        <time>2015-03-19T14:30:28Z</time>
      </trkpt>
      <trkpt lat="42.93269" lon="0.17198">
        <ele>1649.6</ele>
        <time>2015-03-19T14:30:38Z</time>
      </trkpt>
      <trkpt lat="42.93267" lon="0.17224">
        <ele>1646.9</ele>
        <time>2015-03-19T14:30:59Z</time>
      </trkpt>
      <trkpt lat="42.93266" lon="0.17237">
        <ele>1645.6</ele>
        <time>2015-03-19T14:31:09Z</time>
      </trkpt>
      <trkpt lat="42.93262" lon="0.17249">
        <ele>1643.2</ele>
        <time>2015-03-19T14:31:19Z</time>
      </trkpt>
      <trkpt lat="42.93261" lon="0.17262">
        <ele>1643.9</ele>
        <time>2015-03-19T14:31:28Z</time>
      </trkpt>
      <trkpt lat="42.9326" lon="0.17275">
        <ele>1643.4</ele>
        <time>2015-03-19T14:31:38Z</time>
      </trkpt>
      <trkpt lat="42.93258" lon="0.17288">
        <ele>1642.6</ele>
        <time>2015-03-19T14:31:49Z</time>
      </trkpt>
      <trkpt lat="42.93255" lon="0.17314">
        <ele>1644.6</ele>
        <time>2015-03-19T14:32:11Z</time>
      </trkpt>
      <trkpt lat="42.93252" lon="0.17327">
        <ele>1643.1</ele>
        <time>2015-03-19T14:32:21Z</time>
      </trkpt>
      <trkpt lat="42.93249" lon="0.17339">
        <ele>1643.2</ele>
        <time>2015-03-19T14:32:31Z</time>
      </trkpt>
      <trkpt lat="42.93243" lon="0.1735">
        <ele>1644.9</ele>
        <time>2015-03-19T14:32:46Z</time>
      </trkpt>
      <trkpt lat="42.93239" lon="0.17361">
        <ele>1644.5</ele>
        <time>2015-03-19T14:33:00Z</time>
      </trkpt>
      <trkpt lat="42.93235" lon="0.17386">
        <ele>1644.9</ele>
        <time>2015-03-19T14:33:29Z</time>
      </trkpt>
      <trkpt lat="42.9323" lon="0.17397">
        <ele>1645.3</ele>
        <time>2015-03-19T14:33:50Z</time>
      </trkpt>
      <trkpt lat="42.93228" lon="0.17409">
        <ele>1643.7</ele>
        <time>2015-03-19T14:33:58Z</time>
      </trkpt>
      <trkpt lat="42.93226" lon="0.17422">
        <ele>1644</ele>
        <time>2015-03-19T14:34:07Z</time>
      </trkpt>
      <trkpt lat="42.93224" lon="0.1745">
        <ele>1642</ele>
        <time>2015-03-19T14:34:24Z</time>
      </trkpt>
      <trkpt lat="42.93222" lon="0.17462">
        <ele>1640.9</ele>
        <time>2015-03-19T14:34:32Z</time>
      </trkpt>
      <trkpt lat="42.93222" lon="0.17475">
        <ele>1640.9</ele>
        <time>2015-03-19T14:34:39Z</time>
      </trkpt>
      <trkpt lat="42.93222" lon="0.17488">
        <ele>1639.6</ele>
        <time>2015-03-19T14:34:47Z</time>
      </trkpt>
      <trkpt lat="42.93224" lon="0.175">
        <ele>1639</ele>
        <time>2015-03-19T14:34:58Z</time>
      </trkpt>
      <trkpt lat="42.9322" lon="0.17511">
        <ele>1638.7</ele>
        <time>2015-03-19T14:35:12Z</time>
      </trkpt>
      <trkpt lat="42.93213" lon="0.17535">
        <ele>1638.6</ele>
        <time>2015-03-19T14:35:35Z</time>
      </trkpt>
      <trkpt lat="42.93208" lon="0.17548">
        <ele>1638.3</ele>
        <time>2015-03-19T14:35:46Z</time>
      </trkpt>
      <trkpt lat="42.93203" lon="0.17559">
        <ele>1636.9</ele>
        <time>2015-03-19T14:35:58Z</time>
      </trkpt>
      <trkpt lat="42.93198" lon="0.1757">
        <ele>1636.8</ele>
        <time>2015-03-19T14:36:10Z</time>
      </trkpt>
      <trkpt lat="42.93192" lon="0.17581">
        <ele>1637.4</ele>
        <time>2015-03-19T14:36:20Z</time>
      </trkpt>
      <trkpt lat="42.93183" lon="0.17603">
        <ele>1635.9</ele>
        <time>2015-03-19T14:36:40Z</time>
      </trkpt>
      <trkpt lat="42.93176" lon="0.17613">
        <ele>1634</ele>
        <time>2015-03-19T14:36:50Z</time>
      </trkpt>
      <trkpt lat="42.93171" lon="0.17624">
        <ele>1633.1</ele>
        <time>2015-03-19T14:37:00Z</time>
      </trkpt>
      <trkpt lat="42.93167" lon="0.17635">
        <ele>1632.1</ele>
        <time>2015-03-19T14:37:08Z</time>
      </trkpt>
      <trkpt lat="42.93161" lon="0.17646">
        <ele>1630.1</ele>
        <time>2015-03-19T14:37:17Z</time>
      </trkpt>
      <trkpt lat="42.93157" lon="0.17657">
        <ele>1629.5</ele>
        <time>2015-03-19T14:37:26Z</time>
      </trkpt>
      <trkpt lat="42.93149" lon="0.1768">
        <ele>1629.8</ele>
        <time>2015-03-19T14:37:44Z</time>
      </trkpt>
      <trkpt lat="42.93145" lon="0.17692">
        <ele>1628.6</ele>
        <time>2015-03-19T14:37:53Z</time>
      </trkpt>
      <trkpt lat="42.9314" lon="0.17703">
        <ele>1627.7</ele>
        <time>2015-03-19T14:38:03Z</time>
      </trkpt>
      <trkpt lat="42.93136" lon="0.17714">
        <ele>1627.7</ele>
        <time>2015-03-19T14:38:12Z</time>
      </trkpt>
      <trkpt lat="42.9313" lon="0.17724">
        <ele>1626.4</ele>
        <time>2015-03-19T14:38:21Z</time>
      </trkpt>
      <trkpt lat="42.93125" lon="0.17737">
        <ele>1624</ele>
        <time>2015-03-19T14:38:30Z</time>
      </trkpt>
      <trkpt lat="42.93113" lon="0.17764">
        <ele>1622</ele>
        <time>2015-03-19T14:38:50Z</time>
      </trkpt>
      <trkpt lat="42.93103" lon="0.17771">
        <ele>1619</ele>
        <time>2015-03-19T14:38:58Z</time>
      </trkpt>
      <trkpt lat="42.93094" lon="0.1778">
        <ele>1618</ele>
        <time>2015-03-19T14:39:06Z</time>
      </trkpt>
      <trkpt lat="42.93085" lon="0.17787">
        <ele>1617</ele>
        <time>2015-03-19T14:39:14Z</time>
      </trkpt>
      <trkpt lat="42.93078" lon="0.17796">
        <ele>1616</ele>
        <time>2015-03-19T14:39:22Z</time>
      </trkpt>
      <trkpt lat="42.93074" lon="0.17813">
        <ele>1614</ele>
        <time>2015-03-19T14:39:34Z</time>
      </trkpt>
      <trkpt lat="42.93082" lon="0.17843">
        <ele>1612</ele>
        <time>2015-03-19T14:39:54Z</time>
      </trkpt>
      <trkpt lat="42.93073" lon="0.17857">
        <ele>1611</ele>
        <time>2015-03-19T14:40:06Z</time>
      </trkpt>
      <trkpt lat="42.93066" lon="0.17865">
        <ele>1610</ele>
        <time>2015-03-19T14:40:14Z</time>
      </trkpt>
      <trkpt lat="42.9306" lon="0.17881">
        <ele>1610</ele>
        <time>2015-03-19T14:40:26Z</time>
      </trkpt>
      <trkpt lat="42.93059" lon="0.17895">
        <ele>1610</ele>
        <time>2015-03-19T14:40:34Z</time>
      </trkpt>
      <trkpt lat="42.93053" lon="0.17911">
        <ele>1608</ele>
        <time>2015-03-19T14:40:46Z</time>
      </trkpt>
      <trkpt lat="42.9304" lon="0.17933">
        <ele>1606</ele>
        <time>2015-03-19T14:41:02Z</time>
      </trkpt>
      <trkpt lat="42.93033" lon="0.17941">
        <ele>1604</ele>
        <time>2015-03-19T14:41:10Z</time>
      </trkpt>
      <trkpt lat="42.93025" lon="0.17956">
        <ele>1604</ele>
        <time>2015-03-19T14:41:22Z</time>
      </trkpt>
      <trkpt lat="42.93017" lon="0.1797">
        <ele>1603</ele>
        <time>2015-03-19T14:41:34Z</time>
      </trkpt>
      <trkpt lat="42.93008" lon="0.17979">
        <ele>1602</ele>
        <time>2015-03-19T14:41:50Z</time>
      </trkpt>
      <trkpt lat="42.92993" lon="0.18008">
        <ele>1599</ele>
        <time>2015-03-19T14:42:14Z</time>
      </trkpt>
      <trkpt lat="42.92985" lon="0.18015">
        <ele>1597</ele>
        <time>2015-03-19T14:42:22Z</time>
      </trkpt>
      <trkpt lat="42.92975" lon="0.18023">
        <ele>1596</ele>
        <time>2015-03-19T14:42:33Z</time>
      </trkpt>
      <trkpt lat="42.92967" lon="0.18029">
        <ele>1595</ele>
        <time>2015-03-19T14:42:41Z</time>
      </trkpt>
      <trkpt lat="42.9296" lon="0.18039">
        <ele>1594</ele>
        <time>2015-03-19T14:42:49Z</time>
      </trkpt>
      <trkpt lat="42.92954" lon="0.18049">
        <ele>1592.8</ele>
        <time>2015-03-19T14:42:59Z</time>
      </trkpt>
      <trkpt lat="42.92936" lon="0.18071">
        <ele>1589</ele>
        <time>2015-03-19T14:43:22Z</time>
      </trkpt>
      <trkpt lat="42.9293" lon="0.18085">
        <ele>1588</ele>
        <time>2015-03-19T14:43:34Z</time>
      </trkpt>
      <trkpt lat="42.92923" lon="0.18096">
        <ele>1588</ele>
        <time>2015-03-19T14:43:46Z</time>
      </trkpt>
      <trkpt lat="42.92914" lon="0.18108">
        <ele>1587</ele>
        <time>2015-03-19T14:44:01Z</time>
      </trkpt>
      <trkpt lat="42.92893" lon="0.18129">
        <ele>1585</ele>
        <time>2015-03-19T14:44:25Z</time>
      </trkpt>
      <trkpt lat="42.92884" lon="0.18136">
        <ele>1584</ele>
        <time>2015-03-19T14:44:33Z</time>
      </trkpt>
      <trkpt lat="42.92876" lon="0.18146">
        <ele>1584</ele>
        <time>2015-03-19T14:44:45Z</time>
      </trkpt>
      <trkpt lat="42.92867" lon="0.18156">
        <ele>1584</ele>
        <time>2015-03-19T14:44:57Z</time>
      </trkpt>
      <trkpt lat="42.92858" lon="0.18165">
        <ele>1583</ele>
        <time>2015-03-19T14:45:09Z</time>
      </trkpt>
      <trkpt lat="42.92841" lon="0.18189">
        <ele>1582</ele>
        <time>2015-03-19T14:45:33Z</time>
      </trkpt>
      <trkpt lat="42.92834" lon="0.18202">
        <ele>1581</ele>
        <time>2015-03-19T14:45:45Z</time>
      </trkpt>
      <trkpt lat="42.92828" lon="0.18212">
        <ele>1582</ele>
        <time>2015-03-19T14:45:57Z</time>
      </trkpt>
      <trkpt lat="42.92822" lon="0.18223">
        <ele>1582</ele>
        <time>2015-03-19T14:46:09Z</time>
      </trkpt>
      <trkpt lat="42.92817" lon="0.18239">
        <ele>1582</ele>
        <time>2015-03-19T14:46:21Z</time>
      </trkpt>
      <trkpt lat="42.92806" lon="0.18269">
        <ele>1582</ele>
        <time>2015-03-19T14:46:45Z</time>
      </trkpt>
      <trkpt lat="42.928" lon="0.18284">
        <ele>1581</ele>
        <time>2015-03-19T14:46:57Z</time>
      </trkpt>
      <trkpt lat="42.92799" lon="0.18297">
        <ele>1580</ele>
        <time>2015-03-19T14:47:05Z</time>
      </trkpt>
      <trkpt lat="42.92798" lon="0.18313">
        <ele>1579</ele>
        <time>2015-03-19T14:47:17Z</time>
      </trkpt>
      <trkpt lat="42.92796" lon="0.18328">
        <ele>1577</ele>
        <time>2015-03-19T14:47:29Z</time>
      </trkpt>
      <trkpt lat="42.92789" lon="0.18352">
        <ele>1574.7</ele>
        <time>2015-03-19T14:47:47Z</time>
      </trkpt>
      <trkpt lat="42.92786" lon="0.18364">
        <ele>1574.1</ele>
        <time>2015-03-19T14:47:56Z</time>
      </trkpt>
      <trkpt lat="42.92784" lon="0.18377">
        <ele>1572.3</ele>
        <time>2015-03-19T14:48:05Z</time>
      </trkpt>
      <trkpt lat="42.92781" lon="0.18389">
        <ele>1571</ele>
        <time>2015-03-19T14:48:13Z</time>
      </trkpt>
      <trkpt lat="42.92775" lon="0.18399">
        <ele>1570.2</ele>
        <time>2015-03-19T14:48:21Z</time>
      </trkpt>
      <trkpt lat="42.92769" lon="0.18409">
        <ele>1569.7</ele>
        <time>2015-03-19T14:48:32Z</time>
      </trkpt>
      <trkpt lat="42.92754" lon="0.18425">
        <ele>1566.3</ele>
        <time>2015-03-19T14:48:49Z</time>
      </trkpt>
      <trkpt lat="42.92747" lon="0.18433">
        <ele>1563.5</ele>
        <time>2015-03-19T14:48:59Z</time>
      </trkpt>
      <trkpt lat="42.92741" lon="0.18442">
        <ele>1563.1</ele>
        <time>2015-03-19T14:49:07Z</time>
      </trkpt>
      <trkpt lat="42.92733" lon="0.1845">
        <ele>1561.6</ele>
        <time>2015-03-19T14:49:16Z</time>
      </trkpt>
      <trkpt lat="42.92723" lon="0.18453">
        <ele>1559.3</ele>
        <time>2015-03-19T14:49:25Z</time>
      </trkpt>
      <trkpt lat="42.92714" lon="0.1846">
        <ele>1558.4</ele>
        <time>2015-03-19T14:49:35Z</time>
      </trkpt>
      <trkpt lat="42.92697" lon="0.1847">
        <ele>1557.1</ele>
        <time>2015-03-19T14:49:53Z</time>
      </trkpt>
      <trkpt lat="42.92689" lon="0.18477">
        <ele>1555.6</ele>
        <time>2015-03-19T14:50:01Z</time>
      </trkpt>
      <trkpt lat="42.9268" lon="0.18482">
        <ele>1554.4</ele>
        <time>2015-03-19T14:50:09Z</time>
      </trkpt>
      <trkpt lat="42.92671" lon="0.18487">
        <ele>1553.5</ele>
        <time>2015-03-19T14:50:17Z</time>
      </trkpt>
      <trkpt lat="42.92665" lon="0.18496">
        <ele>1552.5</ele>
        <time>2015-03-19T14:50:25Z</time>
      </trkpt>
      <trkpt lat="42.92659" lon="0.18507">
        <ele>1551</ele>
        <time>2015-03-19T14:50:33Z</time>
      </trkpt>
      <trkpt lat="42.92653" lon="0.18517">
        <ele>1549.3</ele>
        <time>2015-03-19T14:50:41Z</time>
      </trkpt>
      <trkpt lat="42.92641" lon="0.18537">
        <ele>1546.1</ele>
        <time>2015-03-19T14:50:58Z</time>
      </trkpt>
      <trkpt lat="42.92637" lon="0.1855">
        <ele>1543.6</ele>
        <time>2015-03-19T14:51:07Z</time>
      </trkpt>
      <trkpt lat="42.92632" lon="0.18561">
        <ele>1541.5</ele>
        <time>2015-03-19T14:51:15Z</time>
      </trkpt>
      <trkpt lat="42.92626" lon="0.18571">
        <ele>1540.2</ele>
        <time>2015-03-19T14:51:20Z</time>
      </trkpt>
      <trkpt lat="42.92622" lon="0.18583">
        <ele>1538.2</ele>
        <time>2015-03-19T14:51:29Z</time>
      </trkpt>
      <trkpt lat="42.92616" lon="0.18594">
        <ele>1535.6</ele>
        <time>2015-03-19T14:51:39Z</time>
      </trkpt>
      <trkpt lat="42.92615" lon="0.18607">
        <ele>1534.5</ele>
        <time>2015-03-19T14:51:48Z</time>
      </trkpt>
      <trkpt lat="42.92613" lon="0.18633">
        <ele>1529.5</ele>
        <time>2015-03-19T14:52:10Z</time>
      </trkpt>
      <trkpt lat="42.92613" lon="0.18646">
        <ele>1526.7</ele>
        <time>2015-03-19T14:52:19Z</time>
      </trkpt>
      <trkpt lat="42.9261" lon="0.18658">
        <ele>1523.8</ele>
        <time>2015-03-19T14:52:31Z</time>
      </trkpt>
      <trkpt lat="42.92605" lon="0.18669">
        <ele>1520.8</ele>
        <time>2015-03-19T14:52:41Z</time>
      </trkpt>
      <trkpt lat="42.92603" lon="0.18681">
        <ele>1518.3</ele>
        <time>2015-03-19T14:52:51Z</time>
      </trkpt>
      <trkpt lat="42.92603" lon="0.18707">
        <ele>1515.2</ele>
        <time>2015-03-19T14:53:09Z</time>
      </trkpt>
      <trkpt lat="42.92606" lon="0.1872">
        <ele>1514.3</ele>
        <time>2015-03-19T14:53:15Z</time>
      </trkpt>
      <trkpt lat="42.92608" lon="0.18733">
        <ele>1513.7</ele>
        <time>2015-03-19T14:53:21Z</time>
      </trkpt>
      <trkpt lat="42.92605" lon="0.18746">
        <ele>1512.8</ele>
        <time>2015-03-19T14:53:31Z</time>
      </trkpt>
      <trkpt lat="42.926" lon="0.18758">
        <ele>1510.3</ele>
        <time>2015-03-19T14:53:39Z</time>
      </trkpt>
      <trkpt lat="42.92597" lon="0.18771">
        <ele>1508.2</ele>
        <time>2015-03-19T14:53:49Z</time>
      </trkpt>
      <trkpt lat="42.92596" lon="0.18783">
        <ele>1505.8</ele>
        <time>2015-03-19T14:53:59Z</time>
      </trkpt>
      <trkpt lat="42.92592" lon="0.18808">
        <ele>1500</ele>
        <time>2015-03-19T14:54:21Z</time>
      </trkpt>
      <trkpt lat="42.92591" lon="0.18822">
        <ele>1497.7</ele>
        <time>2015-03-19T14:54:28Z</time>
      </trkpt>
      <trkpt lat="42.92591" lon="0.18839">
        <ele>1495</ele>
        <time>2015-03-19T14:54:35Z</time>
      </trkpt>
      <trkpt lat="42.92592" lon="0.18853">
        <ele>1494</ele>
        <time>2015-03-19T14:54:43Z</time>
      </trkpt>
      <trkpt lat="42.92596" lon="0.18866">
        <ele>1492</ele>
        <time>2015-03-19T14:54:51Z</time>
      </trkpt>
      <trkpt lat="42.926" lon="0.18879">
        <ele>1490</ele>
        <time>2015-03-19T14:54:59Z</time>
      </trkpt>
      <trkpt lat="42.92609" lon="0.18911">
        <ele>1486</ele>
        <time>2015-03-19T14:55:15Z</time>
      </trkpt>
      <trkpt lat="42.92608" lon="0.18926">
        <ele>1484</ele>
        <time>2015-03-19T14:55:23Z</time>
      </trkpt>
      <trkpt lat="42.92607" lon="0.18943">
        <ele>1483</ele>
        <time>2015-03-19T14:55:31Z</time>
      </trkpt>
      <trkpt lat="42.92604" lon="0.1896">
        <ele>1481</ele>
        <time>2015-03-19T14:55:39Z</time>
      </trkpt>
      <trkpt lat="42.92598" lon="0.1897">
        <ele>1480.3</ele>
        <time>2015-03-19T14:55:47Z</time>
      </trkpt>
      <trkpt lat="42.9259" lon="0.18978">
        <ele>1476.8</ele>
        <time>2015-03-19T14:55:56Z</time>
      </trkpt>
      <trkpt lat="42.92583" lon="0.18986">
        <ele>1475.2</ele>
        <time>2015-03-19T14:56:04Z</time>
      </trkpt>
      <trkpt lat="42.92571" lon="0.19007">
        <ele>1470.7</ele>
        <time>2015-03-19T14:56:20Z</time>
      </trkpt>
      <trkpt lat="42.92566" lon="0.19018">
        <ele>1469.8</ele>
        <time>2015-03-19T14:56:27Z</time>
      </trkpt>
      <trkpt lat="42.92561" lon="0.1903">
        <ele>1468</ele>
        <time>2015-03-19T14:56:34Z</time>
      </trkpt>
      <trkpt lat="42.92557" lon="0.19042">
        <ele>1466.6</ele>
        <time>2015-03-19T14:56:42Z</time>
      </trkpt>
      <trkpt lat="42.92551" lon="0.19053">
        <ele>1464.8</ele>
        <time>2015-03-19T14:56:50Z</time>
      </trkpt>
      <trkpt lat="42.92545" lon="0.19062">
        <ele>1461.7</ele>
        <time>2015-03-19T14:56:58Z</time>
      </trkpt>
      <trkpt lat="42.92538" lon="0.1907">
        <ele>1459.7</ele>
        <time>2015-03-19T14:57:06Z</time>
      </trkpt>
      <trkpt lat="42.92525" lon="0.19089">
        <ele>1453.8</ele>
        <time>2015-03-19T14:57:27Z</time>
      </trkpt>
      <trkpt lat="42.92529" lon="0.19101">
        <ele>1453.3</ele>
        <time>2015-03-19T14:57:51Z</time>
      </trkpt>
      <trkpt lat="42.92538" lon="0.19105">
        <ele>1452.5</ele>
        <time>2015-03-19T14:58:47Z</time>
      </trkpt>
      <trkpt lat="42.92534" lon="0.19106">
        <ele>1452.5</ele>
        <time>2015-03-19T15:00:03Z</time>
      </trkpt>
      <trkpt lat="42.92532" lon="0.19132">
        <ele>1451.6</ele>
        <time>2015-03-19T15:00:23Z</time>
      </trkpt>
      <trkpt lat="42.92534" lon="0.19144">
        <ele>1450.7</ele>
        <time>2015-03-19T15:00:32Z</time>
      </trkpt>
      <trkpt lat="42.92535" lon="0.19157">
        <ele>1450.2</ele>
        <time>2015-03-19T15:00:44Z</time>
      </trkpt>
      <trkpt lat="42.92535" lon="0.1917">
        <ele>1449.7</ele>
        <time>2015-03-19T15:00:53Z</time>
      </trkpt>
      <trkpt lat="42.92534" lon="0.19183">
        <ele>1448.5</ele>
        <time>2015-03-19T15:01:04Z</time>
      </trkpt>
      <trkpt lat="42.92533" lon="0.19208">
        <ele>1447.9</ele>
        <time>2015-03-19T15:01:29Z</time>
      </trkpt>
      <trkpt lat="42.92533" lon="0.19221">
        <ele>1447.1</ele>
        <time>2015-03-19T15:01:41Z</time>
      </trkpt>
      <trkpt lat="42.92527" lon="0.19232">
        <ele>1446.2</ele>
        <time>2015-03-19T15:01:51Z</time>
      </trkpt>
      <trkpt lat="42.92518" lon="0.19234">
        <ele>1445.8</ele>
        <time>2015-03-19T15:02:01Z</time>
      </trkpt>
      <trkpt lat="42.92509" lon="0.19239">
        <ele>1445.9</ele>
        <time>2015-03-19T15:02:10Z</time>
      </trkpt>
      <trkpt lat="42.92493" lon="0.19253">
        <ele>1445</ele>
        <time>2015-03-19T15:02:46Z</time>
      </trkpt>
      <trkpt lat="42.92498" lon="0.19262">
        <ele>1444.4</ele>
        <time>2015-03-19T15:05:17Z</time>
      </trkpt>
      <trkpt lat="42.92493" lon="0.19287">
        <ele>1445</ele>
        <time>2015-03-19T15:05:37Z</time>
      </trkpt>
      <trkpt lat="42.92494" lon="0.193">
        <ele>1446.1</ele>
        <time>2015-03-19T15:05:50Z</time>
      </trkpt>
      <trkpt lat="42.92497" lon="0.19312">
        <ele>1445.8</ele>
        <time>2015-03-19T15:06:00Z</time>
      </trkpt>
      <trkpt lat="42.925" lon="0.19324">
        <ele>1445.5</ele>
        <time>2015-03-19T15:06:11Z</time>
      </trkpt>
      <trkpt lat="42.92506" lon="0.19334">
        <ele>1444.7</ele>
        <time>2015-03-19T15:06:22Z</time>
      </trkpt>
      <trkpt lat="42.92513" lon="0.19358">
        <ele>1443.4</ele>
        <time>2015-03-19T15:06:51Z</time>
      </trkpt>
      <trkpt lat="42.92513" lon="0.19371">
        <ele>1443.8</ele>
        <time>2015-03-19T15:07:02Z</time>
      </trkpt>
      <trkpt lat="42.92513" lon="0.19383">
        <ele>1442.8</ele>
        <time>2015-03-19T15:07:12Z</time>
      </trkpt>
      <trkpt lat="42.92516" lon="0.19396">
        <ele>1441.7</ele>
        <time>2015-03-19T15:07:22Z</time>
      </trkpt>
      <trkpt lat="42.92515" lon="0.19409">
        <ele>1440.4</ele>
        <time>2015-03-19T15:07:33Z</time>
      </trkpt>
      <trkpt lat="42.92511" lon="0.19433">
        <ele>1435.2</ele>
        <time>2015-03-19T15:07:56Z</time>
      </trkpt>
      <trkpt lat="42.92506" lon="0.19444">
        <ele>1433.5</ele>
        <time>2015-03-19T15:08:06Z</time>
      </trkpt>
      <trkpt lat="42.92503" lon="0.19456">
        <ele>1432.4</ele>
        <time>2015-03-19T15:08:18Z</time>
      </trkpt>
      <trkpt lat="42.92505" lon="0.19468">
        <ele>1426.3</ele>
        <time>2015-03-19T15:08:39Z</time>
      </trkpt>
      <trkpt lat="42.92512" lon="0.19488">
        <ele>1419.4</ele>
        <time>2015-03-19T15:09:09Z</time>
      </trkpt>
      <trkpt lat="42.9252" lon="0.19496">
        <ele>1416</ele>
        <time>2015-03-19T15:09:21Z</time>
      </trkpt>
      <trkpt lat="42.92514" lon="0.19507">
        <ele>1414.3</ele>
        <time>2015-03-19T15:09:34Z</time>
      </trkpt>
      <trkpt lat="42.92507" lon="0.19514">
        <ele>1412.5</ele>
        <time>2015-03-19T15:09:46Z</time>
      </trkpt>
      <trkpt lat="42.92494" lon="0.19531">
        <ele>1409.1</ele>
        <time>2015-03-19T15:10:06Z</time>
      </trkpt>
      <trkpt lat="42.92489" lon="0.19544">
        <ele>1407.8</ele>
        <time>2015-03-19T15:10:16Z</time>
      </trkpt>
      <trkpt lat="42.92485" lon="0.19555">
        <ele>1405.7</ele>
        <time>2015-03-19T15:10:24Z</time>
      </trkpt>
      <trkpt lat="42.92481" lon="0.19566">
        <ele>1402.8</ele>
        <time>2015-03-19T15:10:41Z</time>
      </trkpt>
      <trkpt lat="42.92481" lon="0.19579">
        <ele>1398.1</ele>
        <time>2015-03-19T15:10:54Z</time>
      </trkpt>
      <trkpt lat="42.9248" lon="0.19605">
        <ele>1391</ele>
        <time>2015-03-19T15:11:19Z</time>
      </trkpt>
      <trkpt lat="42.92482" lon="0.19618">
        <ele>1385.9</ele>
        <time>2015-03-19T15:11:31Z</time>
      </trkpt>
      <trkpt lat="42.92484" lon="0.1963">
        <ele>1381.4</ele>
        <time>2015-03-19T15:11:41Z</time>
      </trkpt>
      <trkpt lat="42.92489" lon="0.19643">
        <ele>1378.7</ele>
        <time>2015-03-19T15:11:50Z</time>
      </trkpt>
      <trkpt lat="42.92496" lon="0.1965">
        <ele>1375</ele>
        <time>2015-03-19T15:12:00Z</time>
      </trkpt>
      <trkpt lat="42.92514" lon="0.19655">
        <ele>1368</ele>
        <time>2015-03-19T15:12:31Z</time>
      </trkpt>
      <trkpt lat="42.92523" lon="0.19654">
        <ele>1366.1</ele>
        <time>2015-03-19T15:12:46Z</time>
      </trkpt>
      <trkpt lat="42.92532" lon="0.19648">
        <ele>1362.5</ele>
        <time>2015-03-19T15:13:02Z</time>
      </trkpt>
      <trkpt lat="42.92546" lon="0.19647">
        <ele>1355</ele>
        <time>2015-03-19T15:13:45Z</time>
      </trkpt>
      <trkpt lat="42.92547" lon="0.19659">
        <ele>1353.7</ele>
        <time>2015-03-19T15:13:57Z</time>
      </trkpt>
      <trkpt lat="42.92549" lon="0.19672">
        <ele>1349.4</ele>
        <time>2015-03-19T15:14:12Z</time>
      </trkpt>
      <trkpt lat="42.92561" lon="0.19691">
        <ele>1341.8</ele>
        <time>2015-03-19T15:15:03Z</time>
      </trkpt>
      <trkpt lat="42.92562" lon="0.19703">
        <ele>1338.7</ele>
        <time>2015-03-19T15:15:24Z</time>
      </trkpt>
      <trkpt lat="42.92577" lon="0.19719">
        <ele>1330.7</ele>
        <time>2015-03-19T15:16:02Z</time>
      </trkpt>
      <trkpt lat="42.92585" lon="0.19722">
        <ele>1326.4</ele>
        <time>2015-03-19T15:16:18Z</time>
      </trkpt>
      <trkpt lat="42.92593" lon="0.19729">
        <ele>1323.2</ele>
        <time>2015-03-19T15:16:29Z</time>
      </trkpt>
      <trkpt lat="42.92618" lon="0.19744">
        <ele>1319.2</ele>
        <time>2015-03-19T15:18:14Z</time>
      </trkpt>
      <trkpt lat="42.92626" lon="0.19752">
        <ele>1316.9</ele>
        <time>2015-03-19T15:18:28Z</time>
      </trkpt>
      <trkpt lat="42.92629" lon="0.19764">
        <ele>1316.3</ele>
        <time>2015-03-19T15:18:41Z</time>
      </trkpt>
      <trkpt lat="42.92632" lon="0.19777">
        <ele>1315.3</ele>
        <time>2015-03-19T15:18:50Z</time>
      </trkpt>
      <trkpt lat="42.92639" lon="0.19786">
        <ele>1312.9</ele>
        <time>2015-03-19T15:18:58Z</time>
      </trkpt>
      <trkpt lat="42.92654" lon="0.19801">
        <ele>1311.4</ele>
        <time>2015-03-19T15:19:13Z</time>
      </trkpt>
      <trkpt lat="42.92663" lon="0.19807">
        <ele>1311.1</ele>
        <time>2015-03-19T15:19:20Z</time>
      </trkpt>
      <trkpt lat="42.9267" lon="0.19814">
        <ele>1310</ele>
        <time>2015-03-19T15:19:27Z</time>
      </trkpt>
      <trkpt lat="42.92678" lon="0.19822">
        <ele>1308.9</ele>
        <time>2015-03-19T15:19:35Z</time>
      </trkpt>
      <trkpt lat="42.92686" lon="0.1983">
        <ele>1309.1</ele>
        <time>2015-03-19T15:19:43Z</time>
      </trkpt>
      <trkpt lat="42.92694" lon="0.19838">
        <ele>1308.4</ele>
        <time>2015-03-19T15:19:52Z</time>
      </trkpt>
      <trkpt lat="42.92701" lon="0.19846">
        <ele>1306.9</ele>
        <time>2015-03-19T15:20:03Z</time>
      </trkpt>
    </trkseg>
  </trk>
</gpx>